Time,TemperatureF,DewpointF,PressureIn,WindDirection,WindDirectionDegrees,WindSpeedMPH,WindSpeedGustMPH,Humidity,HourlyPrecipIn,Conditions,Clouds,dailyrainin,SoftwareType,DateUTC
2013-09-21 00:01:00,52.7,32.4,29.62,NNW,338,6.5,6.7,46,0.00,,,0.00,WUHU216HW,2013-09-21 06:01:00,
2013-09-21 00:03:00,53.5,33.0,29.62,West,270,2.2,6.5,46,0.00,,,0.00,WUHU216HW,2013-09-21 06:03:00,
2013-09-21 00:04:00,53.6,33.2,29.62,WNW,293,4.7,6.5,46,0.00,,,0.00,WUHU216HW,2013-09-21 06:04:00,
2013-09-21 00:05:00,53.6,33.2,29.62,NNW,338,5.4,6.5,46,0.00,,,0.00,WUHU216HW,2013-09-21 06:05:00,
2013-09-21 00:06:00,53.8,33.4,29.62,NNW,338,4.7,6.5,46,0.00,,,0.00,WUHU216HW,2013-09-21 06:06:00,
2013-09-21 00:08:00,53.8,33.4,29.62,WNW,293,6.3,6.5,46,0.00,,,0.00,WUHU216HW,2013-09-21 06:08:00,
2013-09-21 00:09:00,53.8,33.4,29.62,NW,315,4.7,6.5,46,0.00,,,0.00,WUHU216HW,2013-09-21 06:09:00,
2013-09-21 00:10:00,53.8,33.4,29.62,NW,315,4.7,6.5,46,0.00,,,0.00,WUHU216HW,2013-09-21 06:10:00,
2013-09-21 00:11:00,53.8,33.4,29.62,NW,315,5.1,6.3,46,0.00,,,0.00,WUHU216HW,2013-09-21 06:11:00,
2013-09-21 00:14:00,53.6,33.2,29.62,WNW,293,0.2,6.3,46,0.00,,,0.00,WUHU216HW,2013-09-21 06:14:00,
2013-09-21 00:15:00,53.6,33.2,29.62,WNW,293,0.4,6.3,46,0.00,,,0.00,WUHU216HW,2013-09-21 06:15:00,
2013-09-21 00:16:00,53.5,33.0,29.62,NNW,338,1.1,6.3,46,0.00,,,0.00,WUHU216HW,2013-09-21 06:16:00,
2013-09-21 00:17:00,53.5,33.0,29.62,NNW,338,0.2,6.3,46,0.00,,,0.00,WUHU216HW,2013-09-21 06:17:00,
2013-09-21 00:19:00,53.3,33.0,29.63,WNW,293,1.6,5.1,46,0.00,,,0.00,WUHU216HW,2013-09-21 06:19:00,
2013-09-21 00:20:00,53.3,33.0,29.63,WNW,293,1.8,5.1,46,0.00,,,0.00,WUHU216HW,2013-09-21 06:20:00,
2013-09-21 00:21:00,53.3,33.0,29.62,West,270,3.4,4.3,46,0.00,,,0.00,WUHU216HW,2013-09-21 06:21:00,
2013-09-21 00:22:00,53.1,32.8,29.62,West,270,4.5,4.5,46,0.00,,,0.00,WUHU216HW,2013-09-21 06:22:00,
2013-09-21 00:24:00,52.7,31.9,29.62,WNW,293,2.5,4.5,45,0.00,,,0.00,WUHU216HW,2013-09-21 06:24:00,
2013-09-21 00:25:00,52.6,31.7,29.63,NW,315,4.0,4.5,45,0.00,,,0.00,WUHU216HW,2013-09-21 06:25:00,
2013-09-21 00:27:00,52.4,31.0,29.62,NW,315,2.9,4.5,44,0.00,,,0.00,WUHU216HW,2013-09-21 06:27:00,
2013-09-21 00:30:00,52.4,31.5,29.62,North,0,2.2,4.5,45,0.00,,,0.00,WUHU216HW,2013-09-21 06:30:00,
2013-09-21 00:31:00,52.6,32.2,29.63,North,0,0.7,4.5,46,0.00,,,0.00,WUHU216HW,2013-09-21 06:31:00,
2013-09-21 00:32:00,52.6,32.2,29.63,North,0,0.4,4.5,46,0.00,,,0.00,WUHU216HW,2013-09-21 06:32:00,
2013-09-21 00:33:00,52.6,32.2,29.63,North,0,0.0,4.0,46,0.00,,,0.00,WUHU216HW,2013-09-21 06:33:00,
2013-09-21 00:34:00,52.6,32.2,29.63,WSW,248,2.5,4.0,46,0.00,,,0.00,WUHU216HW,2013-09-21 06:34:00,
2013-09-21 00:35:00,52.6,32.2,29.63,WSW,248,2.5,4.0,46,0.00,,,0.00,WUHU216HW,2013-09-21 06:35:00,
2013-09-21 00:37:00,52.2,31.4,29.63,West,270,2.0,2.9,45,0.00,,,0.00,WUHU216HW,2013-09-21 06:37:00,
2013-09-21 00:38:00,52.2,31.4,29.63,NW,315,2.2,2.9,45,0.00,,,0.00,WUHU216HW,2013-09-21 06:38:00,
2013-09-21 00:39:00,52.0,31.2,29.63,NNW,338,2.0,2.5,45,0.00,,,0.00,WUHU216HW,2013-09-21 06:39:00,
2013-09-21 00:40:00,52.0,31.2,29.63,NNW,338,2.0,2.5,45,0.00,,,0.00,WUHU216HW,2013-09-21 06:40:00,
2013-09-21 00:42:00,51.7,30.9,29.63,WNW,293,2.9,2.9,45,0.00,,,0.00,WUHU216HW,2013-09-21 06:42:00,
2013-09-21 00:43:00,51.5,31.3,29.63,WNW,293,4.3,4.3,46,0.00,,,0.00,WUHU216HW,2013-09-21 06:43:00,
2013-09-21 00:44:00,51.5,31.9,29.63,NW,315,4.7,4.7,47,0.00,,,0.00,WUHU216HW,2013-09-21 06:44:00,
2013-09-21 00:45:00,51.5,31.9,29.63,NW,315,4.7,4.7,47,0.00,,,0.00,WUHU216HW,2013-09-21 06:45:00,
2013-09-21 00:47:00,51.7,32.1,29.63,East,90,2.5,4.7,47,0.00,,,0.00,WUHU216HW,2013-09-21 06:47:00,
2013-09-21 00:48:00,51.7,32.1,29.63,NNE,23,1.1,4.7,47,0.00,,,0.00,WUHU216HW,2013-09-21 06:48:00,
2013-09-21 00:50:00,51.7,31.4,29.63,NNW,338,1.3,4.7,46,0.00,,,0.00,WUHU216HW,2013-09-21 06:50:00,
2013-09-21 00:52:00,51.7,31.4,29.63,NW,315,1.8,4.7,46,0.00,,,0.00,WUHU216HW,2013-09-21 06:52:00,
2013-09-21 00:53:00,51.5,31.3,29.63,SSW,203,2.0,4.7,46,0.00,,,0.00,WUHU216HW,2013-09-21 06:53:00,
2013-09-21 00:55:00,51.5,31.9,29.63,SE,135,2.7,4.0,47,0.00,,,0.00,WUHU216HW,2013-09-21 06:55:00,
2013-09-21 00:58:00,51.1,31.5,29.63,SE,135,1.8,3.1,47,0.00,,,0.00,WUHU216HW,2013-09-21 06:58:00,
2013-09-21 00:59:00,50.9,31.3,29.63,SSW,203,1.8,3.1,47,0.00,,,0.00,WUHU216HW,2013-09-21 06:59:00,
2013-09-21 01:00:00,50.9,31.3,29.63,SW,225,2.5,3.1,47,0.00,,,0.00,WUHU216HW,2013-09-21 07:00:00,
2013-09-21 01:03:00,50.8,31.8,29.63,SW,225,4.7,4.9,48,0.00,,,0.00,WUHU216HW,2013-09-21 07:03:00,
2013-09-21 01:04:00,50.6,31.6,29.63,SW,225,5.1,5.4,48,0.00,,,0.00,WUHU216HW,2013-09-21 07:04:00,
2013-09-21 01:05:00,50.6,32.1,29.63,WSW,248,4.7,5.4,49,0.00,,,0.00,WUHU216HW,2013-09-21 07:05:00,
2013-09-21 01:09:00,50.4,31.4,29.63,SSW,203,3.1,5.4,48,0.00,,,0.00,WUHU216HW,2013-09-21 07:09:00,
2013-09-21 01:10:00,50.0,31.2,29.63,WSW,248,3.1,5.4,48,0.00,,,0.00,WUHU216HW,2013-09-21 07:10:00,
2013-09-21 01:11:00,50.0,31.2,29.63,SW,225,2.2,5.4,48,0.00,,,0.00,WUHU216HW,2013-09-21 07:11:00,
2013-09-21 01:14:00,50.0,31.2,29.62,SE,135,1.3,5.4,48,0.00,,,0.00,WUHU216HW,2013-09-21 07:14:00,
2013-09-21 01:15:00,49.9,31.0,29.63,SSW,203,2.2,4.9,48,0.00,,,0.00,WUHU216HW,2013-09-21 07:15:00,
2013-09-21 01:16:00,49.9,31.0,29.63,SW,225,1.1,4.9,48,0.00,,,0.00,WUHU216HW,2013-09-21 07:16:00,
2013-09-21 01:19:00,49.5,30.6,29.63,WSW,248,2.0,3.8,48,0.00,,,0.00,WUHU216HW,2013-09-21 07:19:00,
2013-09-21 01:20:00,49.5,30.6,29.63,SW,225,2.9,3.8,48,0.00,,,0.00,WUHU216HW,2013-09-21 07:20:00,
2013-09-21 01:21:00,49.5,30.6,29.63,SW,225,2.7,2.9,48,0.00,,,0.00,WUHU216HW,2013-09-21 07:21:00,
2013-09-21 01:22:00,49.3,30.4,29.63,SW,225,4.3,4.3,48,0.00,,,0.00,WUHU216HW,2013-09-21 07:22:00,
2013-09-21 01:24:00,49.0,30.6,29.63,SW,225,4.0,7.4,49,0.00,,,0.00,WUHU216HW,2013-09-21 07:24:00,
2013-09-21 01:25:00,49.0,30.6,29.63,SSW,203,2.0,7.4,49,0.00,,,0.00,WUHU216HW,2013-09-21 07:25:00,
2013-09-21 01:26:00,48.8,31.0,29.63,ESE,113,1.6,7.4,50,0.00,,,0.00,WUHU216HW,2013-09-21 07:26:00,
2013-09-21 01:27:00,48.6,30.8,29.63,ESE,113,1.1,7.4,50,0.00,,,0.00,WUHU216HW,2013-09-21 07:27:00,
2013-09-21 01:29:00,48.6,30.8,29.63,WSW,248,5.4,7.4,50,0.00,,,0.00,WUHU216HW,2013-09-21 07:29:00,
2013-09-21 01:30:00,48.4,30.6,29.63,WSW,248,3.6,7.4,50,0.00,,,0.00,WUHU216HW,2013-09-21 07:30:00,
2013-09-21 01:31:00,48.4,30.6,29.63,WSW,248,2.7,7.4,50,0.00,,,0.00,WUHU216HW,2013-09-21 07:31:00,
2013-09-21 01:32:00,48.2,30.4,29.63,WSW,248,2.5,7.4,50,0.00,,,0.00,WUHU216HW,2013-09-21 07:32:00,
2013-09-21 01:34:00,48.4,31.1,29.63,West,270,5.4,5.4,51,0.00,,,0.00,WUHU216HW,2013-09-21 07:34:00,
2013-09-21 01:35:00,48.4,31.1,29.63,WSW,248,4.5,5.4,51,0.00,,,0.00,WUHU216HW,2013-09-21 07:35:00,
2013-09-21 01:36:00,48.4,31.1,29.63,WSW,248,4.7,5.4,51,0.00,,,0.00,WUHU216HW,2013-09-21 07:36:00,
2013-09-21 01:37:00,48.4,31.1,29.63,WSW,248,4.7,5.4,51,0.00,,,0.00,WUHU216HW,2013-09-21 07:37:00,
2013-09-21 01:39:00,48.4,30.6,29.63,WSW,248,2.9,5.4,50,0.00,,,0.00,WUHU216HW,2013-09-21 07:39:00,
2013-09-21 01:41:00,48.4,30.6,29.63,West,270,2.7,5.4,50,0.00,,,0.00,WUHU216HW,2013-09-21 07:41:00,
2013-09-21 01:42:00,48.4,30.1,29.62,West,270,3.6,5.4,49,0.00,,,0.00,WUHU216HW,2013-09-21 07:42:00,
2013-09-21 01:46:00,48.2,29.9,29.63,WSW,248,6.7,6.7,49,0.00,,,0.00,WUHU216HW,2013-09-21 07:46:00,
2013-09-21 01:47:00,48.1,29.7,29.62,WSW,248,4.9,6.7,49,0.00,,,0.00,WUHU216HW,2013-09-21 07:47:00,
2013-09-21 01:51:00,47.9,30.1,29.62,WSW,248,1.8,6.7,50,0.00,,,0.00,WUHU216HW,2013-09-21 07:51:00,
2013-09-21 01:52:00,47.9,30.1,29.62,WSW,248,5.6,6.7,50,0.00,,,0.00,WUHU216HW,2013-09-21 07:52:00,
2013-09-21 01:56:00,47.9,30.1,29.62,SW,225,3.1,6.3,50,0.00,,,0.00,WUHU216HW,2013-09-21 07:56:00,
2013-09-21 01:57:00,47.9,30.1,29.62,SW,225,1.3,6.3,50,0.00,,,0.00,WUHU216HW,2013-09-21 07:57:00,
2013-09-21 02:01:00,47.9,30.1,29.62,SSW,203,3.6,6.3,50,0.00,,,0.00,WUHU216HW,2013-09-21 08:01:00,
2013-09-21 02:02:00,47.9,30.1,29.62,SE,135,2.7,6.3,50,0.00,,,0.00,WUHU216HW,2013-09-21 08:02:00,
2013-09-21 02:03:00,47.9,30.1,29.62,ESE,113,4.9,6.0,50,0.00,,,0.00,WUHU216HW,2013-09-21 08:03:00,
2013-09-21 02:06:00,48.1,30.2,29.62,SW,225,5.4,5.8,50,0.00,,,0.00,WUHU216HW,2013-09-21 08:06:00,
2013-09-21 02:07:00,48.1,30.7,29.62,SW,225,6.3,7.6,51,0.00,,,0.00,WUHU216HW,2013-09-21 08:07:00,
2013-09-21 02:08:00,48.1,30.7,29.62,WSW,248,8.3,8.3,51,0.00,,,0.00,WUHU216HW,2013-09-21 08:08:00,
2013-09-21 02:12:00,48.1,30.7,29.62,SE,135,6.9,8.5,51,0.00,,,0.00,WUHU216HW,2013-09-21 08:12:00,
2013-09-21 02:13:00,48.4,31.1,29.62,SE,135,6.7,8.5,51,0.00,,,0.00,WUHU216HW,2013-09-21 08:13:00,
2013-09-21 02:17:00,49.0,31.6,29.62,SE,135,6.3,8.5,51,0.00,,,0.00,WUHU216HW,2013-09-21 08:17:00,
2013-09-21 02:18:00,49.1,31.8,29.62,SE,135,7.2,8.5,51,0.00,,,0.00,WUHU216HW,2013-09-21 08:18:00,
2013-09-21 02:22:00,49.5,31.7,29.62,SSE,158,6.0,8.7,50,0.00,,,0.00,WUHU216HW,2013-09-21 08:22:00,
2013-09-21 02:23:00,49.7,31.9,29.62,South,180,5.4,8.7,50,0.00,,,0.00,WUHU216HW,2013-09-21 08:23:00,
2013-09-21 02:27:00,49.7,31.9,29.61,South,180,4.7,8.7,50,0.00,,,0.00,WUHU216HW,2013-09-21 08:27:00,
2013-09-21 02:28:00,49.7,31.9,29.61,SSE,158,4.5,8.7,50,0.00,,,0.00,WUHU216HW,2013-09-21 08:28:00,
2013-09-21 02:32:00,49.5,31.2,29.61,South,180,2.5,6.3,49,0.00,,,0.00,WUHU216HW,2013-09-21 08:32:00,
2013-09-21 02:33:00,49.5,31.2,29.61,South,180,4.7,6.3,49,0.00,,,0.00,WUHU216HW,2013-09-21 08:33:00,
2013-09-21 02:34:00,49.3,31.0,29.61,SSE,158,4.7,6.3,49,0.00,,,0.00,WUHU216HW,2013-09-21 08:34:00,
2013-09-21 02:37:00,49.1,31.3,29.61,South,180,5.4,6.3,50,0.00,,,0.00,WUHU216HW,2013-09-21 08:37:00,
2013-09-21 02:38:00,49.1,31.3,29.61,SSE,158,5.1,6.3,50,0.00,,,0.00,WUHU216HW,2013-09-21 08:38:00,
2013-09-21 02:39:00,49.1,31.3,29.61,SSE,158,5.1,6.3,50,0.00,,,0.00,WUHU216HW,2013-09-21 08:39:00,
2013-09-21 02:43:00,49.0,31.6,29.62,SSE,158,5.6,6.3,51,0.00,,,0.00,WUHU216HW,2013-09-21 08:43:00,
2013-09-21 02:44:00,49.0,31.6,29.61,SSE,158,4.9,6.3,51,0.00,,,0.00,WUHU216HW,2013-09-21 08:44:00,
2013-09-21 02:48:00,48.8,31.4,29.61,South,180,4.7,7.2,51,0.00,,,0.00,WUHU216HW,2013-09-21 08:48:00,
2013-09-21 02:49:00,48.8,31.4,29.61,SSW,203,4.5,7.2,51,0.00,,,0.00,WUHU216HW,2013-09-21 08:49:00,
2013-09-21 02:53:00,48.8,31.0,29.62,SW,225,5.1,7.2,50,0.00,,,0.00,WUHU216HW,2013-09-21 08:53:00,
2013-09-21 02:54:00,48.8,31.4,29.62,SW,225,5.4,7.2,51,0.00,,,0.00,WUHU216HW,2013-09-21 08:54:00,
2013-09-21 02:55:00,48.8,31.4,29.62,WSW,248,5.4,7.2,51,0.00,,,0.00,WUHU216HW,2013-09-21 08:55:00,
2013-09-21 02:58:00,48.6,30.8,29.62,SSE,158,3.8,5.4,50,0.00,,,0.00,WUHU216HW,2013-09-21 08:58:00,
2013-09-21 02:59:00,48.6,30.8,29.62,SSE,158,3.4,5.4,50,0.00,,,0.00,WUHU216HW,2013-09-21 08:59:00,
2013-09-21 03:00:00,48.6,31.2,29.62,SE,135,4.7,5.4,51,0.00,,,0.00,WUHU216HW,2013-09-21 09:00:00,
2013-09-21 03:03:00,48.8,31.0,29.62,SW,225,3.6,5.4,50,0.00,,,0.00,WUHU216HW,2013-09-21 09:03:00,
2013-09-21 03:04:00,48.8,31.0,29.62,SW,225,4.0,5.4,50,0.00,,,0.00,WUHU216HW,2013-09-21 09:04:00,
2013-09-21 03:05:00,48.8,31.0,29.62,SW,225,4.0,5.4,50,0.00,,,0.00,WUHU216HW,2013-09-21 09:05:00,
2013-09-21 03:09:00,48.6,31.2,29.61,SSW,203,2.5,4.9,51,0.00,,,0.00,WUHU216HW,2013-09-21 09:09:00,
2013-09-21 03:10:00,48.6,31.2,29.61,SSE,158,3.6,4.9,51,0.00,,,0.00,WUHU216HW,2013-09-21 09:10:00,
2013-09-21 03:14:00,48.6,31.2,29.61,SSE,158,2.5,4.9,51,0.00,,,0.00,WUHU216HW,2013-09-21 09:14:00,
2013-09-21 03:15:00,48.6,31.2,29.61,SW,225,1.6,4.9,51,0.00,,,0.00,WUHU216HW,2013-09-21 09:15:00,
2013-09-21 03:19:00,48.4,31.1,29.61,WSW,248,2.0,4.5,51,0.00,,,0.00,WUHU216HW,2013-09-21 09:19:00,
2013-09-21 03:20:00,48.4,31.1,29.61,WSW,248,3.4,4.3,51,0.00,,,0.00,WUHU216HW,2013-09-21 09:20:00,
2013-09-21 03:24:00,47.9,30.6,29.61,West,270,1.6,3.4,51,0.00,,,0.00,WUHU216HW,2013-09-21 09:24:00,
2013-09-21 03:25:00,47.9,31.1,29.61,West,270,4.3,4.3,52,0.00,,,0.00,WUHU216HW,2013-09-21 09:25:00,
2013-09-21 03:26:00,47.7,30.9,29.61,West,270,3.4,4.3,52,0.00,,,0.00,WUHU216HW,2013-09-21 09:26:00,
2013-09-21 03:29:00,47.2,29.9,29.61,West,270,2.5,4.3,51,0.00,,,0.00,WUHU216HW,2013-09-21 09:29:00,
2013-09-21 03:30:00,47.0,30.3,29.61,West,270,2.5,4.3,52,0.00,,,0.00,WUHU216HW,2013-09-21 09:30:00,
2013-09-21 03:31:00,46.8,30.1,29.61,WNW,293,2.5,4.3,52,0.00,,,0.00,WUHU216HW,2013-09-21 09:31:00,
2013-09-21 03:34:00,46.4,29.7,29.61,WNW,293,2.5,4.3,52,0.00,,,0.00,WUHU216HW,2013-09-21 09:34:00,
2013-09-21 03:35:00,46.3,29.5,29.61,WNW,293,2.7,4.3,52,0.00,,,0.00,WUHU216HW,2013-09-21 09:35:00,
2013-09-21 03:36:00,46.1,29.3,29.61,West,270,2.7,4.3,52,0.00,,,0.00,WUHU216HW,2013-09-21 09:36:00,
2013-09-21 03:40:00,45.5,29.3,29.61,West,270,1.3,3.4,53,0.00,,,0.00,WUHU216HW,2013-09-21 09:40:00,
2013-09-21 03:41:00,45.4,29.2,29.61,WSW,248,4.3,4.3,53,0.00,,,0.00,WUHU216HW,2013-09-21 09:41:00,
2013-09-21 03:45:00,45.0,29.4,29.61,West,270,4.7,5.4,54,0.00,,,0.00,WUHU216HW,2013-09-21 09:45:00,
2013-09-21 03:46:00,44.8,29.2,29.61,West,270,5.4,5.4,54,0.00,,,0.00,WUHU216HW,2013-09-21 09:46:00,
2013-09-21 03:50:00,44.5,29.7,29.61,West,270,4.5,6.0,56,0.00,,,0.00,WUHU216HW,2013-09-21 09:50:00,
2013-09-21 03:51:00,44.5,29.3,29.61,West,270,4.9,6.0,55,0.00,,,0.00,WUHU216HW,2013-09-21 09:51:00,
2013-09-21 03:55:00,44.3,29.1,29.61,WSW,248,2.7,6.0,55,0.00,,,0.00,WUHU216HW,2013-09-21 09:55:00,
2013-09-21 03:56:00,44.3,29.1,29.61,WSW,248,3.1,5.8,55,0.00,,,0.00,WUHU216HW,2013-09-21 09:56:00,
2013-09-21 03:57:00,44.3,29.1,29.61,WSW,248,3.1,5.8,55,0.00,,,0.00,WUHU216HW,2013-09-21 09:57:00,
2013-09-21 04:00:00,44.1,29.3,29.61,West,270,4.3,4.9,56,0.00,,,0.00,WUHU216HW,2013-09-21 10:00:00,
2013-09-21 04:01:00,43.9,29.2,29.61,WSW,248,4.0,4.9,56,0.00,,,0.00,WUHU216HW,2013-09-21 10:01:00,
2013-09-21 04:02:00,43.9,29.2,29.61,West,270,3.8,4.3,56,0.00,,,0.00,WUHU216HW,2013-09-21 10:02:00,
2013-09-21 04:05:00,43.7,29.0,29.61,West,270,3.4,4.3,56,0.00,,,0.00,WUHU216HW,2013-09-21 10:05:00,
2013-09-21 04:06:00,43.7,29.0,29.61,WNW,293,2.7,4.3,56,0.00,,,0.00,WUHU216HW,2013-09-21 10:06:00,
2013-09-21 04:07:00,43.7,29.0,29.61,West,270,2.2,4.3,56,0.00,,,0.00,WUHU216HW,2013-09-21 10:07:00,
2013-09-21 04:10:00,43.7,29.0,29.61,WSW,248,4.0,4.3,56,0.00,,,0.00,WUHU216HW,2013-09-21 10:10:00,
2013-09-21 04:11:00,43.7,29.0,29.61,WSW,248,5.6,5.6,56,0.00,,,0.00,WUHU216HW,2013-09-21 10:11:00,
2013-09-21 04:12:00,43.7,29.4,29.61,WSW,248,5.4,6.0,57,0.00,,,0.00,WUHU216HW,2013-09-21 10:12:00,
2013-09-21 04:13:00,43.7,29.4,29.61,West,270,3.4,6.0,57,0.00,,,0.00,WUHU216HW,2013-09-21 10:13:00,
2013-09-21 04:15:00,43.6,29.3,29.61,WSW,248,5.1,6.0,57,0.00,,,0.00,WUHU216HW,2013-09-21 10:15:00,
2013-09-21 04:16:00,43.6,29.3,29.61,WSW,248,4.5,6.0,57,0.00,,,0.00,WUHU216HW,2013-09-21 10:16:00,
2013-09-21 04:18:00,43.6,29.3,29.61,WSW,248,4.5,6.0,57,0.00,,,0.00,WUHU216HW,2013-09-21 10:18:00,
2013-09-21 04:20:00,43.6,29.3,29.61,WSW,248,5.6,6.7,57,0.00,,,0.00,WUHU216HW,2013-09-21 10:20:00,
2013-09-21 04:21:00,43.6,29.7,29.61,West,270,5.1,6.7,58,0.00,,,0.00,WUHU216HW,2013-09-21 10:21:00,
2013-09-21 04:22:00,43.6,29.3,29.61,West,270,4.0,6.7,57,0.00,,,0.00,WUHU216HW,2013-09-21 10:22:00,
2013-09-21 04:23:00,43.6,29.7,29.61,West,270,2.9,6.7,58,0.00,,,0.00,WUHU216HW,2013-09-21 10:23:00,
2013-09-21 04:24:00,43.6,29.7,29.61,WSW,248,6.5,6.7,58,0.00,,,0.00,WUHU216HW,2013-09-21 10:24:00,
2013-09-21 04:25:00,43.6,30.2,29.61,WSW,248,6.3,6.9,59,0.00,,,0.00,WUHU216HW,2013-09-21 10:25:00,
2013-09-21 04:26:00,43.6,29.7,29.61,WSW,248,6.5,6.9,58,0.00,,,0.00,WUHU216HW,2013-09-21 10:26:00,
2013-09-21 04:27:00,43.6,29.7,29.61,WSW,248,6.3,6.9,58,0.00,,,0.00,WUHU216HW,2013-09-21 10:27:00,
2013-09-21 04:29:00,43.4,29.5,29.61,WSW,248,4.9,6.9,58,0.00,,,0.00,WUHU216HW,2013-09-21 10:29:00,
2013-09-21 04:30:00,43.4,29.5,29.61,WSW,248,4.9,6.9,58,0.00,,,0.00,WUHU216HW,2013-09-21 10:30:00,
2013-09-21 04:32:00,43.4,29.5,29.61,SW,225,3.6,6.9,58,0.00,,,0.00,WUHU216HW,2013-09-21 10:32:00,
2013-09-21 04:34:00,43.4,29.1,29.61,WSW,248,4.5,6.9,57,0.00,,,0.00,WUHU216HW,2013-09-21 10:34:00,
2013-09-21 04:35:00,43.6,29.3,29.60,WSW,248,6.0,6.7,57,0.00,,,0.00,WUHU216HW,2013-09-21 10:35:00,
2013-09-21 04:37:00,43.6,29.3,29.60,WSW,248,5.6,6.3,57,0.00,,,0.00,WUHU216HW,2013-09-21 10:37:00,
2013-09-21 04:39:00,43.6,29.3,29.60,West,270,5.4,6.3,57,0.00,,,0.00,WUHU216HW,2013-09-21 10:39:00,
2013-09-21 04:40:00,43.6,29.3,29.60,WSW,248,6.5,6.5,57,0.00,,,0.00,WUHU216HW,2013-09-21 10:40:00,
2013-09-21 04:42:00,43.7,29.4,29.60,West,270,5.4,6.5,57,0.00,,,0.00,WUHU216HW,2013-09-21 10:42:00,
2013-09-21 04:43:00,43.7,29.4,29.60,West,270,5.1,6.5,57,0.00,,,0.00,WUHU216HW,2013-09-21 10:43:00,
2013-09-21 04:45:00,43.9,29.2,29.61,West,270,6.0,6.5,56,0.00,,,0.00,WUHU216HW,2013-09-21 10:45:00,
2013-09-21 04:46:00,43.9,29.2,29.61,West,270,5.4,6.5,56,0.00,,,0.00,WUHU216HW,2013-09-21 10:46:00,
2013-09-21 04:47:00,44.3,29.5,29.61,West,270,3.4,6.5,56,0.00,,,0.00,WUHU216HW,2013-09-21 10:47:00,
2013-09-21 04:48:00,44.3,29.5,29.61,West,270,3.6,6.5,56,0.00,,,0.00,WUHU216HW,2013-09-21 10:48:00,
2013-09-21 04:50:00,44.8,29.6,29.61,West,270,1.1,6.5,55,0.00,,,0.00,WUHU216HW,2013-09-21 10:50:00,
2013-09-21 04:51:00,44.8,29.6,29.61,SSW,203,1.1,6.5,55,0.00,,,0.00,WUHU216HW,2013-09-21 10:51:00,
2013-09-21 04:52:00,45.0,30.3,29.61,SSW,203,0.0,6.0,56,0.00,,,0.00,WUHU216HW,2013-09-21 10:52:00,
2013-09-21 04:53:00,45.0,30.3,29.61,SE,135,2.0,6.0,56,0.00,,,0.00,WUHU216HW,2013-09-21 10:53:00,
2013-09-21 04:55:00,45.2,29.9,29.60,SE,135,1.8,5.4,55,0.00,,,0.00,WUHU216HW,2013-09-21 10:55:00,
2013-09-21 04:56:00,45.4,30.1,29.61,SSE,158,1.8,5.4,55,0.00,,,0.00,WUHU216HW,2013-09-21 10:56:00,
2013-09-21 04:57:00,45.4,30.1,29.60,SW,225,1.3,3.6,55,0.00,,,0.00,WUHU216HW,2013-09-21 10:57:00,
2013-09-21 04:58:00,45.4,30.1,29.60,WSW,248,1.8,3.6,55,0.00,,,0.00,WUHU216HW,2013-09-21 10:58:00,
2013-09-21 05:00:00,45.4,30.1,29.61,West,270,3.4,3.6,55,0.00,,,0.00,WUHU216HW,2013-09-21 11:00:00,
2013-09-21 05:01:00,45.4,29.6,29.61,WSW,248,3.1,3.6,54,0.00,,,0.00,WUHU216HW,2013-09-21 11:01:00,
2013-09-21 05:02:00,45.4,29.6,29.61,WSW,248,1.1,3.6,54,0.00,,,0.00,WUHU216HW,2013-09-21 11:02:00,
2013-09-21 05:03:00,45.4,29.6,29.61,SSE,158,1.8,3.6,54,0.00,,,0.00,WUHU216HW,2013-09-21 11:03:00,
2013-09-21 05:05:00,45.4,29.6,29.61,SSW,203,2.9,3.6,54,0.00,,,0.00,WUHU216HW,2013-09-21 11:05:00,
2013-09-21 05:06:00,45.4,29.6,29.61,SW,225,3.4,3.6,54,0.00,,,0.00,WUHU216HW,2013-09-21 11:06:00,
2013-09-21 05:08:00,45.4,29.6,29.61,SW,225,1.6,3.6,54,0.00,,,0.00,WUHU216HW,2013-09-21 11:08:00,
2013-09-21 05:10:00,45.7,30.0,29.61,SE,135,3.6,3.6,54,0.00,,,0.00,WUHU216HW,2013-09-21 11:10:00,
2013-09-21 05:11:00,45.7,30.0,29.61,SE,135,2.2,3.6,54,0.00,,,0.00,WUHU216HW,2013-09-21 11:11:00,
2013-09-21 05:13:00,45.9,30.2,29.61,SW,225,2.5,3.6,54,0.00,,,0.00,WUHU216HW,2013-09-21 11:13:00,
2013-09-21 05:16:00,46.1,30.2,29.61,West,270,2.0,3.8,54,0.00,,,0.00,WUHU216HW,2013-09-21 11:16:00,
2013-09-21 05:17:00,46.1,29.8,29.61,WSW,248,0.4,3.8,53,0.00,,,0.00,WUHU216HW,2013-09-21 11:17:00,
2013-09-21 05:19:00,46.1,29.8,29.61,SSW,203,1.8,3.8,53,0.00,,,0.00,WUHU216HW,2013-09-21 11:19:00,
2013-09-21 05:21:00,46.1,29.8,29.61,WSW,248,1.8,3.8,53,0.00,,,0.00,WUHU216HW,2013-09-21 11:21:00,
2013-09-21 05:22:00,45.9,29.7,29.61,WSW,248,3.6,3.8,53,0.00,,,0.00,WUHU216HW,2013-09-21 11:22:00,
2013-09-21 05:24:00,45.7,30.0,29.61,West,270,6.5,6.5,54,0.00,,,0.00,WUHU216HW,2013-09-21 11:24:00,
2013-09-21 05:26:00,45.4,29.6,29.61,WSW,248,6.0,6.5,54,0.00,,,0.00,WUHU216HW,2013-09-21 11:26:00,
2013-09-21 05:27:00,45.4,29.6,29.61,WSW,248,5.4,6.5,54,0.00,,,0.00,WUHU216HW,2013-09-21 11:27:00,
2013-09-21 05:29:00,45.2,29.4,29.61,WSW,248,3.6,6.5,54,0.00,,,0.00,WUHU216HW,2013-09-21 11:29:00,
2013-09-21 05:31:00,45.2,29.4,29.61,WSW,248,5.4,6.5,54,0.00,,,0.00,WUHU216HW,2013-09-21 11:31:00,
2013-09-21 05:32:00,45.0,29.4,29.61,WSW,248,5.4,6.5,54,0.00,,,0.00,WUHU216HW,2013-09-21 11:32:00,
2013-09-21 05:34:00,45.0,29.4,29.61,WSW,248,1.8,6.3,54,0.00,,,0.00,WUHU216HW,2013-09-21 11:34:00,
2013-09-21 05:37:00,45.0,29.8,29.61,SW,225,4.0,6.3,55,0.00,,,0.00,WUHU216HW,2013-09-21 11:37:00,
2013-09-21 05:38:00,44.8,29.6,29.61,SW,225,3.4,6.3,55,0.00,,,0.00,WUHU216HW,2013-09-21 11:38:00,
2013-09-21 05:39:00,44.8,29.2,29.61,West,270,4.0,5.4,54,0.00,,,0.00,WUHU216HW,2013-09-21 11:39:00,
2013-09-21 05:42:00,44.8,29.2,29.61,WSW,248,2.7,4.0,54,0.00,,,0.00,WUHU216HW,2013-09-21 11:42:00,
2013-09-21 05:43:00,44.8,29.2,29.60,WSW,248,2.9,4.0,54,0.00,,,0.00,WUHU216HW,2013-09-21 11:43:00,
2013-09-21 05:44:00,44.8,29.2,29.60,WSW,248,5.1,5.4,54,0.00,,,0.00,WUHU216HW,2013-09-21 11:44:00,
2013-09-21 05:47:00,44.8,29.2,29.60,WSW,248,3.8,5.8,54,0.00,,,0.00,WUHU216HW,2013-09-21 11:47:00,
2013-09-21 05:48:00,44.8,29.6,29.60,SW,225,4.5,5.8,55,0.00,,,0.00,WUHU216HW,2013-09-21 11:48:00,
2013-09-21 05:49:00,44.8,29.6,29.60,SW,225,3.6,5.8,55,0.00,,,0.00,WUHU216HW,2013-09-21 11:49:00,
2013-09-21 05:52:00,44.8,29.2,29.60,SSW,203,3.8,5.8,54,0.00,,,0.00,WUHU216HW,2013-09-21 11:52:00,
2013-09-21 05:53:00,44.8,29.6,29.60,SSW,203,4.3,5.8,55,0.00,,,0.00,WUHU216HW,2013-09-21 11:53:00,
2013-09-21 05:54:00,44.8,29.6,29.60,SSW,203,4.3,5.8,55,0.00,,,0.00,WUHU216HW,2013-09-21 11:54:00,
2013-09-21 05:58:00,44.8,29.2,29.60,SW,225,4.0,4.7,54,0.00,,,0.00,WUHU216HW,2013-09-21 11:58:00,
2013-09-21 05:59:00,44.6,29.0,29.60,SW,225,3.4,4.7,54,0.00,,,0.00,WUHU216HW,2013-09-21 11:59:00,
2013-09-21 06:00:00,44.6,29.0,29.60,SW,225,3.8,4.7,54,0.00,,,0.00,WUHU216HW,2013-09-21 12:00:00,
2013-09-21 06:03:00,44.6,29.0,29.60,SW,225,2.9,4.7,54,0.00,,,0.00,WUHU216HW,2013-09-21 12:03:00,
2013-09-21 06:04:00,44.6,29.0,29.60,SW,225,3.8,4.7,54,0.00,,,0.00,WUHU216HW,2013-09-21 12:04:00,
2013-09-21 06:05:00,44.6,29.0,29.60,SW,225,4.0,4.7,54,0.00,,,0.00,WUHU216HW,2013-09-21 12:05:00,
2013-09-21 06:08:00,44.6,29.0,29.60,SW,225,3.4,4.3,54,0.00,,,0.00,WUHU216HW,2013-09-21 12:08:00,
2013-09-21 06:09:00,44.6,29.0,29.59,SW,225,3.4,4.0,54,0.00,,,0.00,WUHU216HW,2013-09-21 12:09:00,
2013-09-21 06:10:00,44.6,29.0,29.59,SW,225,3.6,4.0,54,0.00,,,0.00,WUHU216HW,2013-09-21 12:10:00,
2013-09-21 06:13:00,44.6,29.0,29.59,WSW,248,4.7,4.7,54,0.00,,,0.00,WUHU216HW,2013-09-21 12:13:00,
2013-09-21 06:14:00,44.6,29.0,29.59,WSW,248,5.4,5.4,54,0.00,,,0.00,WUHU216HW,2013-09-21 12:14:00,
2013-09-21 06:15:00,44.6,29.0,29.59,WSW,248,6.9,6.9,54,0.00,,,0.00,WUHU216HW,2013-09-21 12:15:00,
2013-09-21 06:19:00,44.5,29.3,29.59,SW,225,5.4,6.9,55,0.00,,,0.00,WUHU216HW,2013-09-21 12:19:00,
2013-09-21 06:20:00,44.5,29.3,29.59,SSW,203,6.3,6.9,55,0.00,,,0.00,WUHU216HW,2013-09-21 12:20:00,
2013-09-21 06:24:00,44.6,29.0,29.59,WSW,248,7.4,7.4,54,0.00,,,0.00,WUHU216HW,2013-09-21 12:24:00,
2013-09-21 06:25:00,44.8,29.2,29.59,SW,225,8.5,9.4,54,0.00,,,0.00,WUHU216HW,2013-09-21 12:25:00,
2013-09-21 06:26:00,45.0,29.8,29.59,SW,225,4.3,9.4,55,0.00,,,0.00,WUHU216HW,2013-09-21 12:26:00,
2013-09-21 06:29:00,45.9,29.7,29.59,SSW,203,6.7,9.4,53,0.00,,,0.00,WUHU216HW,2013-09-21 12:29:00,
2013-09-21 06:30:00,46.3,30.0,29.59,SSW,203,7.4,9.4,53,0.00,,,0.00,WUHU216HW,2013-09-21 12:30:00,
2013-09-21 06:31:00,46.4,30.2,29.59,SSW,203,5.6,9.4,53,0.00,,,0.00,WUHU216HW,2013-09-21 12:31:00,
2013-09-21 06:34:00,47.2,29.9,29.58,WSW,248,6.3,9.2,51,0.00,,,0.00,WUHU216HW,2013-09-21 12:34:00,
2013-09-21 06:35:00,47.2,29.9,29.58,SW,225,6.7,9.2,51,0.00,,,0.00,WUHU216HW,2013-09-21 12:35:00,
2013-09-21 06:36:00,47.3,30.1,29.58,SW,225,7.8,9.2,51,0.00,,,0.00,WUHU216HW,2013-09-21 12:36:00,
2013-09-21 06:39:00,47.9,29.5,29.58,South,180,5.6,9.2,49,0.00,,,0.00,WUHU216HW,2013-09-21 12:39:00,
2013-09-21 06:40:00,47.9,29.5,29.58,SSE,158,5.1,9.2,49,0.00,,,0.00,WUHU216HW,2013-09-21 12:40:00,
2013-09-21 06:41:00,47.9,29.0,29.58,SW,225,7.4,9.2,48,0.00,,,0.00,WUHU216HW,2013-09-21 12:41:00,
2013-09-21 06:44:00,48.6,29.2,29.58,SW,225,8.5,9.2,47,0.00,,,0.00,WUHU216HW,2013-09-21 12:44:00,
2013-09-21 06:45:00,48.6,29.2,29.58,WSW,248,8.9,9.2,47,0.00,,,0.00,WUHU216HW,2013-09-21 12:45:00,
2013-09-21 06:46:00,48.6,29.2,29.58,WSW,248,8.3,9.2,47,0.00,,,0.00,WUHU216HW,2013-09-21 12:46:00,
2013-09-21 06:49:00,48.8,29.4,29.58,SW,225,8.1,9.2,47,0.00,,,0.00,WUHU216HW,2013-09-21 12:49:00,
2013-09-21 06:51:00,48.8,29.4,29.58,SW,225,7.6,9.2,47,0.00,,,0.00,WUHU216HW,2013-09-21 12:51:00,
2013-09-21 06:55:00,48.6,29.2,29.58,SSW,203,6.0,8.9,47,0.00,,,0.00,WUHU216HW,2013-09-21 12:55:00,
2013-09-21 06:56:00,48.6,29.2,29.58,WSW,248,8.5,8.5,47,0.00,,,0.00,WUHU216HW,2013-09-21 12:56:00,
2013-09-21 06:57:00,48.6,29.2,29.58,WSW,248,7.2,8.5,47,0.00,,,0.00,WUHU216HW,2013-09-21 12:57:00,
2013-09-21 07:00:00,48.2,28.8,29.58,SW,225,4.0,8.5,47,0.00,,,0.00,WUHU216HW,2013-09-21 13:00:00,
2013-09-21 07:01:00,48.1,29.2,29.58,SW,225,4.3,8.5,48,0.00,,,0.00,WUHU216HW,2013-09-21 13:01:00,
2013-09-21 07:02:00,48.1,29.2,29.58,SSW,203,4.3,8.5,48,0.00,,,0.00,WUHU216HW,2013-09-21 13:02:00,
2013-09-21 07:05:00,47.7,28.9,29.58,SSE,158,6.0,8.5,48,0.00,,,0.00,WUHU216HW,2013-09-21 13:05:00,
2013-09-21 07:06:00,47.7,28.9,29.58,SE,135,5.6,7.6,48,0.00,,,0.00,WUHU216HW,2013-09-21 13:06:00,
2013-09-21 07:07:00,47.7,28.9,29.58,South,180,4.9,7.6,48,0.00,,,0.00,WUHU216HW,2013-09-21 13:07:00,
2013-09-21 07:08:00,47.7,28.9,29.58,SE,135,6.0,7.6,48,0.00,,,0.00,WUHU216HW,2013-09-21 13:08:00,
2013-09-21 07:10:00,47.9,29.0,29.58,SE,135,6.9,6.9,48,0.00,,,0.00,WUHU216HW,2013-09-21 13:10:00,
2013-09-21 07:11:00,47.9,28.4,29.58,SSE,158,5.4,6.9,47,0.00,,,0.00,WUHU216HW,2013-09-21 13:11:00,
2013-09-21 07:12:00,47.9,28.4,29.58,SSE,158,4.0,6.9,47,0.00,,,0.00,WUHU216HW,2013-09-21 13:12:00,
2013-09-21 07:14:00,48.1,28.6,29.58,SSE,158,4.7,6.9,47,0.00,,,0.00,WUHU216HW,2013-09-21 13:14:00,
2013-09-21 07:16:00,48.2,28.8,29.58,SE,135,4.3,6.9,47,0.00,,,0.00,WUHU216HW,2013-09-21 13:16:00,
2013-09-21 07:17:00,48.2,29.3,29.58,SSE,158,4.7,6.9,48,0.00,,,0.00,WUHU216HW,2013-09-21 13:17:00,
2013-09-21 07:19:00,48.2,28.8,29.58,SE,135,5.4,6.9,47,0.00,,,0.00,WUHU216HW,2013-09-21 13:19:00,
2013-09-21 07:21:00,48.2,28.8,29.58,SE,135,5.4,5.4,47,0.00,,,0.00,WUHU216HW,2013-09-21 13:21:00,
2013-09-21 07:22:00,48.4,29.0,29.58,SE,135,4.7,5.4,47,0.00,,,0.00,WUHU216HW,2013-09-21 13:22:00,
2013-09-21 07:24:00,48.4,29.0,29.58,SE,135,4.0,5.4,47,0.00,,,0.00,WUHU216HW,2013-09-21 13:24:00,
2013-09-21 07:26:00,48.4,29.0,29.58,ESE,113,3.4,5.4,47,0.00,,,0.00,WUHU216HW,2013-09-21 13:26:00,
2013-09-21 07:27:00,48.4,29.0,29.58,ESE,113,3.4,5.4,47,0.00,,,0.00,WUHU216HW,2013-09-21 13:27:00,
2013-09-21 07:28:00,48.4,29.0,29.58,ESE,113,3.4,5.4,47,0.00,,,0.00,WUHU216HW,2013-09-21 13:28:00,
2013-09-21 07:29:00,48.6,29.2,29.58,ESE,113,3.8,5.4,47,0.00,,,0.00,WUHU216HW,2013-09-21 13:29:00,
2013-09-21 07:31:00,48.6,29.2,29.58,SE,135,4.3,5.4,47,0.00,,,0.00,WUHU216HW,2013-09-21 13:31:00,
2013-09-21 07:33:00,48.8,29.4,29.58,ESE,113,3.6,4.7,47,0.00,,,0.00,WUHU216HW,2013-09-21 13:33:00,
2013-09-21 07:36:00,48.8,29.4,29.58,ESE,113,4.3,4.3,47,0.00,,,0.00,WUHU216HW,2013-09-21 13:36:00,
2013-09-21 07:37:00,48.8,29.4,29.58,ESE,113,3.8,4.3,47,0.00,,,0.00,WUHU216HW,2013-09-21 13:37:00,
2013-09-21 07:38:00,49.0,29.5,29.58,ESE,113,4.0,4.3,47,0.00,,,0.00,WUHU216HW,2013-09-21 13:38:00,
2013-09-21 07:41:00,49.1,29.7,29.58,ESE,113,4.5,4.5,47,0.00,,,0.00,WUHU216HW,2013-09-21 13:41:00,
2013-09-21 07:43:00,49.1,29.7,29.58,ESE,113,4.5,4.5,47,0.00,,,0.00,WUHU216HW,2013-09-21 13:43:00,
2013-09-21 07:44:00,49.1,29.7,29.58,ESE,113,4.5,4.5,47,0.00,,,0.00,WUHU216HW,2013-09-21 13:44:00,
2013-09-21 07:46:00,49.5,29.4,29.58,SE,135,4.5,4.9,46,0.00,,,0.00,WUHU216HW,2013-09-21 13:46:00,
2013-09-21 07:47:00,49.7,29.6,29.58,ESE,113,4.3,4.9,46,0.00,,,0.00,WUHU216HW,2013-09-21 13:47:00,
2013-09-21 07:48:00,49.9,29.8,29.58,ESE,113,4.7,4.9,46,0.00,,,0.00,WUHU216HW,2013-09-21 13:48:00,
2013-09-21 07:49:00,49.9,29.8,29.58,SE,135,4.7,4.9,46,0.00,,,0.00,WUHU216HW,2013-09-21 13:49:00,
2013-09-21 07:51:00,50.0,30.5,29.58,SE,135,4.7,4.9,47,0.00,,,0.00,WUHU216HW,2013-09-21 13:51:00,
2013-09-21 07:53:00,50.0,30.5,29.58,SSE,158,4.9,4.9,47,0.00,,,0.00,WUHU216HW,2013-09-21 13:53:00,
2013-09-21 07:54:00,50.2,30.7,29.58,SSE,158,4.3,6.7,47,0.00,,,0.00,WUHU216HW,2013-09-21 13:54:00,
2013-09-21 07:55:00,50.2,30.7,29.58,SSE,158,6.3,6.7,47,0.00,,,0.00,WUHU216HW,2013-09-21 13:55:00,
2013-09-21 07:57:00,50.2,30.7,29.58,SSE,158,5.8,6.7,47,0.00,,,0.00,WUHU216HW,2013-09-21 13:57:00,
2013-09-21 07:58:00,50.2,31.2,29.58,SSE,158,6.0,6.7,48,0.00,,,0.00,WUHU216HW,2013-09-21 13:58:00,
2013-09-21 08:00:00,50.0,31.2,29.58,SSE,158,4.5,6.7,48,0.00,,,0.00,WUHU216HW,2013-09-21 14:00:00,
2013-09-21 08:02:00,50.0,31.2,29.58,SSE,158,5.1,6.7,48,0.00,,,0.00,WUHU216HW,2013-09-21 14:02:00,
2013-09-21 08:03:00,49.9,31.5,29.58,SSE,158,5.8,6.7,49,0.00,,,0.00,WUHU216HW,2013-09-21 14:03:00,
2013-09-21 08:05:00,49.9,32.0,29.58,SE,135,6.7,6.7,50,0.00,,,0.00,WUHU216HW,2013-09-21 14:05:00,
2013-09-21 08:06:00,49.9,32.0,29.58,SE,135,4.7,6.7,50,0.00,,,0.00,WUHU216HW,2013-09-21 14:06:00,
2013-09-21 08:07:00,49.9,32.0,29.58,SE,135,6.0,6.7,50,0.00,,,0.00,WUHU216HW,2013-09-21 14:07:00,
2013-09-21 08:08:00,49.7,32.3,29.58,SE,135,4.3,6.7,51,0.00,,,0.00,WUHU216HW,2013-09-21 14:08:00,
2013-09-21 08:10:00,49.5,32.6,29.58,ESE,113,4.3,6.7,52,0.00,,,0.00,WUHU216HW,2013-09-21 14:10:00,
2013-09-21 08:11:00,49.5,33.0,29.58,ESE,113,5.4,6.7,53,0.00,,,0.00,WUHU216HW,2013-09-21 14:11:00,
2013-09-21 08:12:00,49.5,33.5,29.58,ESE,113,5.6,6.7,54,0.00,,,0.00,WUHU216HW,2013-09-21 14:12:00,
2013-09-21 08:13:00,49.5,33.9,29.58,ESE,113,6.0,6.7,55,0.00,,,0.00,WUHU216HW,2013-09-21 14:13:00,
2013-09-21 08:14:00,49.7,33.7,29.58,ESE,113,6.5,6.7,54,0.00,,,0.00,WUHU216HW,2013-09-21 14:14:00,
2013-09-21 08:15:00,49.9,33.8,29.58,ESE,113,4.7,6.5,54,0.00,,,0.00,WUHU216HW,2013-09-21 14:15:00,
2013-09-21 08:17:00,49.9,34.3,29.57,ESE,113,5.8,6.5,55,0.00,,,0.00,WUHU216HW,2013-09-21 14:17:00,
2013-09-21 08:18:00,50.0,34.0,29.57,ESE,113,4.7,6.5,54,0.00,,,0.00,WUHU216HW,2013-09-21 14:18:00,
2013-09-21 08:19:00,50.0,34.0,29.57,ESE,113,6.3,6.5,54,0.00,,,0.00,WUHU216HW,2013-09-21 14:19:00,
2013-09-21 08:20:00,50.0,34.0,29.57,ESE,113,6.3,6.5,54,0.00,,,0.00,WUHU216HW,2013-09-21 14:20:00,
2013-09-21 08:22:00,50.2,33.8,29.57,ESE,113,6.3,6.5,53,0.00,,,0.00,WUHU216HW,2013-09-21 14:22:00,
2013-09-21 08:23:00,50.4,33.9,29.57,SE,135,4.0,6.5,53,0.00,,,0.00,WUHU216HW,2013-09-21 14:23:00,
2013-09-21 08:24:00,50.6,34.0,29.57,South,180,2.5,6.3,53,0.00,,,0.00,WUHU216HW,2013-09-21 14:24:00,
2013-09-21 08:25:00,50.6,34.0,29.57,East,90,2.0,6.3,53,0.00,,,0.00,WUHU216HW,2013-09-21 14:25:00,
2013-09-21 08:28:00,50.9,34.4,29.57,SSE,158,1.8,6.3,53,0.00,,,0.00,WUHU216HW,2013-09-21 14:28:00,
2013-09-21 08:29:00,51.1,34.1,29.58,ESE,113,1.6,6.3,52,0.00,,,0.00,WUHU216HW,2013-09-21 14:29:00,
2013-09-21 08:31:00,51.3,34.3,29.57,SE,135,3.1,6.3,52,0.00,,,0.00,WUHU216HW,2013-09-21 14:31:00,
2013-09-21 08:33:00,51.5,34.4,29.57,East,90,4.3,5.4,52,0.00,,,0.00,WUHU216HW,2013-09-21 14:33:00,
2013-09-21 08:34:00,51.5,34.4,29.57,East,90,7.2,7.2,52,0.00,,,0.00,WUHU216HW,2013-09-21 14:34:00,
2013-09-21 08:37:00,51.7,34.6,29.57,ESE,113,6.3,7.2,52,0.00,,,0.00,WUHU216HW,2013-09-21 14:37:00,
2013-09-21 08:39:00,51.8,34.7,29.57,East,90,5.4,7.2,52,0.00,,,0.00,WUHU216HW,2013-09-21 14:39:00,
2013-09-21 08:42:00,51.8,34.3,29.57,SE,135,3.8,7.2,51,0.00,,,0.00,WUHU216HW,2013-09-21 14:42:00,
2013-09-21 08:44:00,51.8,34.3,29.57,SSE,158,2.5,7.2,51,0.00,,,0.00,WUHU216HW,2013-09-21 14:44:00,
2013-09-21 08:45:00,51.8,34.3,29.57,SSE,158,0.9,7.2,51,0.00,,,0.00,WUHU216HW,2013-09-21 14:45:00,
2013-09-21 08:47:00,51.8,34.3,29.57,SSW,203,1.8,5.4,51,0.00,,,0.00,WUHU216HW,2013-09-21 14:47:00,
2013-09-21 08:49:00,51.8,34.3,29.57,SSE,158,2.5,4.7,51,0.00,,,0.00,WUHU216HW,2013-09-21 14:49:00,
2013-09-21 08:50:00,51.8,34.3,29.57,South,180,0.7,3.8,51,0.00,,,0.00,WUHU216HW,2013-09-21 14:50:00,
2013-09-21 08:52:00,52.0,34.5,29.57,SSW,203,1.1,3.8,51,0.00,,,0.00,WUHU216HW,2013-09-21 14:52:00,
2013-09-21 08:54:00,52.0,34.9,29.57,East,90,3.6,3.8,52,0.00,,,0.00,WUHU216HW,2013-09-21 14:54:00,
2013-09-21 08:55:00,52.2,35.1,29.57,East,90,3.6,3.8,52,0.00,,,0.00,WUHU216HW,2013-09-21 14:55:00,
2013-09-21 08:57:00,52.2,34.7,29.57,East,90,2.7,3.8,51,0.00,,,0.00,WUHU216HW,2013-09-21 14:57:00,
2013-09-21 08:59:00,52.4,34.7,29.57,East,90,2.7,3.8,51,0.00,,,0.00,WUHU216HW,2013-09-21 14:59:00,
2013-09-21 09:00:00,52.6,34.9,29.57,ESE,113,1.8,3.8,51,0.00,,,0.00,WUHU216HW,2013-09-21 15:00:00,
2013-09-21 09:01:00,52.6,34.9,29.57,ESE,113,1.8,3.8,51,0.00,,,0.00,WUHU216HW,2013-09-21 15:01:00,
2013-09-21 09:03:00,52.7,35.1,29.57,NE,45,2.5,3.8,51,0.00,,,0.00,WUHU216HW,2013-09-21 15:03:00,
2013-09-21 09:04:00,52.9,35.3,29.57,NE,45,2.0,3.6,51,0.00,,,0.00,WUHU216HW,2013-09-21 15:04:00,
2013-09-21 09:05:00,53.1,35.5,29.57,NE,45,2.5,3.6,51,0.00,,,0.00,WUHU216HW,2013-09-21 15:05:00,
2013-09-21 09:06:00,53.3,35.7,29.56,ENE,68,1.6,3.6,51,0.00,,,0.00,WUHU216HW,2013-09-21 15:06:00,
2013-09-21 09:08:00,53.6,35.5,29.56,NNE,23,4.5,4.5,50,0.00,,,0.00,WUHU216HW,2013-09-21 15:08:00,
2013-09-21 09:09:00,53.6,35.5,29.56,NNE,23,4.5,4.5,50,0.00,,,0.00,WUHU216HW,2013-09-21 15:09:00,
2013-09-21 09:10:00,54.2,34.8,29.56,NNW,338,1.3,4.5,48,0.00,,,0.00,WUHU216HW,2013-09-21 15:10:00,
2013-09-21 09:13:00,54.4,35.0,29.56,North,0,1.1,4.5,48,0.00,,,0.00,WUHU216HW,2013-09-21 15:13:00,
2013-09-21 09:15:00,54.4,34.5,29.56,North,0,1.8,4.5,47,0.00,,,0.00,WUHU216HW,2013-09-21 15:15:00,
2013-09-21 09:16:00,54.5,34.6,29.57,North,0,2.2,4.5,47,0.00,,,0.00,WUHU216HW,2013-09-21 15:16:00,
2013-09-21 09:18:00,54.5,35.2,29.56,North,0,1.1,4.7,48,0.00,,,0.00,WUHU216HW,2013-09-21 15:18:00,
2013-09-21 09:20:00,54.5,33.5,29.56,NE,45,4.7,4.7,45,0.00,,,0.00,WUHU216HW,2013-09-21 15:20:00,
2013-09-21 09:21:00,54.7,34.7,29.56,East,90,4.3,4.7,47,0.00,,,0.00,WUHU216HW,2013-09-21 15:21:00,
2013-09-21 09:23:00,54.7,33.1,29.56,North,0,4.0,4.7,44,0.00,,,0.00,WUHU216HW,2013-09-21 15:23:00,
2013-09-21 09:25:00,54.9,33.9,29.56,North,0,4.0,4.7,45,0.00,,,0.00,WUHU216HW,2013-09-21 15:25:00,
2013-09-21 09:26:00,54.9,34.4,29.56,NNW,338,3.4,4.7,46,0.00,,,0.00,WUHU216HW,2013-09-21 15:26:00,
2013-09-21 09:28:00,55.1,35.1,29.56,North,0,6.7,6.7,47,0.00,,,0.00,WUHU216HW,2013-09-21 15:28:00,
2013-09-21 09:29:00,55.1,35.6,29.56,North,0,5.6,6.7,48,0.00,,,0.00,WUHU216HW,2013-09-21 15:29:00,
2013-09-21 09:30:00,55.1,35.6,29.56,North,0,1.6,6.7,48,0.00,,,0.00,WUHU216HW,2013-09-21 15:30:00,
2013-09-21 09:31:00,55.1,35.6,29.56,NNE,23,2.5,6.7,48,0.00,,,0.00,WUHU216HW,2013-09-21 15:31:00,
2013-09-21 09:33:00,55.3,35.3,29.57,NNE,23,3.6,6.7,47,0.00,,,0.00,WUHU216HW,2013-09-21 15:33:00,
2013-09-21 09:34:00,55.4,35.4,29.56,North,0,5.4,6.7,47,0.00,,,0.00,WUHU216HW,2013-09-21 15:34:00,
2013-09-21 09:35:00,55.4,35.4,29.57,NNE,23,2.7,6.7,47,0.00,,,0.00,WUHU216HW,2013-09-21 15:35:00,
2013-09-21 09:36:00,55.6,36.2,29.57,North,0,2.0,6.7,48,0.00,,,0.00,WUHU216HW,2013-09-21 15:36:00,
2013-09-21 09:38:00,55.6,36.2,29.57,North,0,1.8,5.6,48,0.00,,,0.00,WUHU216HW,2013-09-21 15:38:00,
2013-09-21 09:39:00,55.6,36.2,29.57,North,0,1.8,5.4,48,0.00,,,0.00,WUHU216HW,2013-09-21 15:39:00,
2013-09-21 09:40:00,55.6,36.2,29.57,North,0,1.8,5.4,48,0.00,,,0.00,WUHU216HW,2013-09-21 15:40:00,
2013-09-21 09:41:00,55.6,36.2,29.57,North,0,1.8,5.4,48,0.00,,,0.00,WUHU216HW,2013-09-21 15:41:00,
2013-09-21 09:43:00,56.0,36.5,29.56,North,0,1.8,6.3,48,0.00,,,0.00,WUHU216HW,2013-09-21 15:43:00,
2013-09-21 09:45:00,56.3,36.8,29.56,North,0,2.0,6.3,48,0.00,,,0.00,WUHU216HW,2013-09-21 15:45:00,
2013-09-21 09:46:00,56.3,36.8,29.56,North,0,1.8,6.3,48,0.00,,,0.00,WUHU216HW,2013-09-21 15:46:00,
2013-09-21 09:48:00,56.3,36.3,29.56,North,0,4.5,6.7,47,0.00,,,0.00,WUHU216HW,2013-09-21 15:48:00,
2013-09-21 09:50:00,56.5,36.5,29.56,North,0,5.4,6.7,47,0.00,,,0.00,WUHU216HW,2013-09-21 15:50:00,
2013-09-21 09:51:00,56.5,37.0,29.56,NNW,338,3.1,6.7,48,0.00,,,0.00,WUHU216HW,2013-09-21 15:51:00,
2013-09-21 09:53:00,56.5,37.0,29.56,North,0,3.1,6.7,48,0.00,,,0.00,WUHU216HW,2013-09-21 15:53:00,
2013-09-21 09:55:00,56.5,37.0,29.56,North,0,3.4,6.7,48,0.00,,,0.00,WUHU216HW,2013-09-21 15:55:00,
2013-09-21 09:56:00,56.7,36.6,29.56,North,0,2.5,6.7,47,0.00,,,0.00,WUHU216HW,2013-09-21 15:56:00,
2013-09-21 09:58:00,56.9,37.4,29.56,NNW,338,3.1,5.4,48,0.00,,,0.00,WUHU216HW,2013-09-21 15:58:00,
2013-09-21 10:00:00,56.9,37.4,29.56,North,0,3.4,5.1,48,0.00,,,0.00,WUHU216HW,2013-09-21 16:00:00,
2013-09-21 10:02:00,57.1,37.5,29.57,NNW,338,3.4,5.1,48,0.00,,,0.00,WUHU216HW,2013-09-21 16:02:00,
2013-09-21 10:03:00,57.1,37.5,29.57,NNW,338,4.9,5.1,48,0.00,,,0.00,WUHU216HW,2013-09-21 16:03:00,
2013-09-21 10:05:00,57.2,37.7,29.57,NNW,338,4.0,5.1,48,0.00,,,0.00,WUHU216HW,2013-09-21 16:05:00,
2013-09-21 10:07:00,57.2,37.2,29.57,NW,315,5.4,5.4,47,0.00,,,0.00,WUHU216HW,2013-09-21 16:07:00,
2013-09-21 10:08:00,57.4,37.4,29.57,North,0,3.4,5.4,47,0.00,,,0.00,WUHU216HW,2013-09-21 16:08:00,
2013-09-21 10:09:00,57.4,37.4,29.57,North,0,3.4,5.4,47,0.00,,,0.00,WUHU216HW,2013-09-21 16:09:00,
2013-09-21 10:11:00,57.6,36.4,29.57,North,0,3.4,5.4,45,0.00,,,0.00,WUHU216HW,2013-09-21 16:11:00,
2013-09-21 10:12:00,57.6,36.4,29.57,North,0,2.7,5.4,45,0.00,,,0.00,WUHU216HW,2013-09-21 16:12:00,
2013-09-21 10:13:00,57.6,36.4,29.57,NNW,338,5.1,5.4,45,0.00,,,0.00,WUHU216HW,2013-09-21 16:13:00,
2013-09-21 10:14:00,57.6,36.4,29.57,NNW,338,4.9,5.4,45,0.00,,,0.00,WUHU216HW,2013-09-21 16:14:00,
2013-09-21 10:16:00,58.0,36.6,29.57,NW,315,5.4,6.5,45,0.00,,,0.00,WUHU216HW,2013-09-21 16:16:00,
2013-09-21 10:17:00,58.0,36.1,29.57,North,0,4.3,6.5,44,0.00,,,0.00,WUHU216HW,2013-09-21 16:17:00,
2013-09-21 10:18:00,58.1,36.3,29.57,NW,315,4.0,6.5,44,0.00,,,0.00,WUHU216HW,2013-09-21 16:18:00,
2013-09-21 10:19:00,58.1,36.3,29.57,NW,315,4.0,6.5,44,0.00,,,0.00,WUHU216HW,2013-09-21 16:19:00,
2013-09-21 10:21:00,58.3,35.8,29.57,NNW,338,4.7,6.5,43,0.00,,,0.00,WUHU216HW,2013-09-21 16:21:00,
2013-09-21 10:22:00,58.3,35.3,29.57,North,0,3.8,6.5,42,0.00,,,0.00,WUHU216HW,2013-09-21 16:22:00,
2013-09-21 10:23:00,58.5,36.0,29.57,North,0,2.2,6.5,43,0.00,,,0.00,WUHU216HW,2013-09-21 16:23:00,
2013-09-21 10:24:00,58.5,35.4,29.57,NNW,338,1.3,6.5,42,0.00,,,0.00,WUHU216HW,2013-09-21 16:24:00,
2013-09-21 10:26:00,58.7,36.2,29.57,North,0,3.1,5.1,43,0.00,,,0.00,WUHU216HW,2013-09-21 16:26:00,
2013-09-21 10:27:00,59.0,35.9,29.57,North,0,2.2,4.7,42,0.00,,,0.00,WUHU216HW,2013-09-21 16:27:00,
2013-09-21 10:29:00,59.2,36.1,29.57,North,0,1.3,4.7,42,0.00,,,0.00,WUHU216HW,2013-09-21 16:29:00,
2013-09-21 10:31:00,59.6,35.8,29.56,NW,315,4.7,4.7,41,0.00,,,0.00,WUHU216HW,2013-09-21 16:31:00,
2013-09-21 10:33:00,60.1,35.7,29.56,North,0,3.4,4.7,40,0.00,,,0.00,WUHU216HW,2013-09-21 16:33:00,
2013-09-21 10:34:00,60.3,35.9,29.56,NW,315,4.0,4.7,40,0.00,,,0.00,WUHU216HW,2013-09-21 16:34:00,
2013-09-21 10:36:00,60.7,36.2,29.57,NNW,338,4.0,4.7,40,0.00,,,0.00,WUHU216HW,2013-09-21 16:36:00,
2013-09-21 10:39:00,60.8,35.6,29.56,NW,315,3.4,4.7,39,0.00,,,0.00,WUHU216HW,2013-09-21 16:39:00,
2013-09-21 10:40:00,60.8,35.6,29.56,NW,315,3.4,4.7,39,0.00,,,0.00,WUHU216HW,2013-09-21 16:40:00,
2013-09-21 10:41:00,61.0,35.1,29.56,North,0,2.9,4.7,38,0.00,,,0.00,WUHU216HW,2013-09-21 16:41:00,
2013-09-21 10:44:00,61.0,35.8,29.56,NW,315,2.9,4.7,39,0.00,,,0.00,WUHU216HW,2013-09-21 16:44:00,
2013-09-21 10:45:00,61.2,36.0,29.56,NW,315,2.9,4.7,39,0.00,,,0.00,WUHU216HW,2013-09-21 16:45:00,
2013-09-21 10:46:00,61.6,36.3,29.56,NNW,338,3.6,4.7,39,0.00,,,0.00,WUHU216HW,2013-09-21 16:46:00,
2013-09-21 10:47:00,61.6,36.3,29.56,NNW,338,3.6,4.7,39,0.00,,,0.00,WUHU216HW,2013-09-21 16:47:00,
2013-09-21 10:49:00,61.9,35.2,29.56,NW,315,4.5,4.7,37,0.00,,,0.00,WUHU216HW,2013-09-21 16:49:00,
2013-09-21 10:50:00,62.1,35.4,29.56,NNW,338,3.8,4.5,37,0.00,,,0.00,WUHU216HW,2013-09-21 16:50:00,
2013-09-21 10:52:00,62.3,35.5,29.56,North,0,2.5,4.5,37,0.00,,,0.00,WUHU216HW,2013-09-21 16:52:00,
2013-09-21 10:54:00,62.6,35.8,29.56,NW,315,3.1,4.5,37,0.00,,,0.00,WUHU216HW,2013-09-21 16:54:00,
2013-09-21 10:55:00,62.8,36.0,29.56,NW,315,4.0,4.5,37,0.00,,,0.00,WUHU216HW,2013-09-21 16:55:00,
2013-09-21 10:57:00,63.0,36.2,29.56,North,0,1.8,4.5,37,0.00,,,0.00,WUHU216HW,2013-09-21 16:57:00,
2013-09-21 10:59:00,63.4,36.5,29.56,NW,315,3.4,4.0,37,0.00,,,0.00,WUHU216HW,2013-09-21 16:59:00,
2013-09-21 11:00:00,63.5,36.6,29.56,WNW,293,2.5,4.0,37,0.00,,,0.00,WUHU216HW,2013-09-21 17:00:00,
2013-09-21 11:02:00,63.9,37.0,29.56,North,0,1.3,4.0,37,0.00,,,0.00,WUHU216HW,2013-09-21 17:02:00,
2013-09-21 11:04:00,64.3,37.3,29.56,WNW,293,3.4,4.0,37,0.00,,,0.00,WUHU216HW,2013-09-21 17:04:00,
2013-09-21 11:05:00,64.4,36.7,29.56,WNW,293,3.4,4.0,36,0.00,,,0.00,WUHU216HW,2013-09-21 17:05:00,
2013-09-21 11:06:00,64.4,36.7,29.56,WNW,293,3.4,3.8,36,0.00,,,0.00,WUHU216HW,2013-09-21 17:06:00,
2013-09-21 11:07:00,64.6,36.9,29.56,NNW,338,0.9,3.8,36,0.00,,,0.00,WUHU216HW,2013-09-21 17:07:00,
2013-09-21 11:09:00,64.8,37.8,29.56,West,270,1.1,3.4,37,0.00,,,0.00,WUHU216HW,2013-09-21 17:09:00,
2013-09-21 11:11:00,64.8,37.8,29.56,West,270,1.1,3.4,37,0.00,,,0.00,WUHU216HW,2013-09-21 17:11:00,
2013-09-21 11:12:00,65.3,37.5,29.56,North,0,4.5,6.3,36,0.00,,,0.00,WUHU216HW,2013-09-21 17:12:00,
2013-09-21 11:15:00,65.3,36.1,29.56,NNE,23,2.0,6.3,34,0.00,,,0.00,WUHU216HW,2013-09-21 17:15:00,
2013-09-21 11:16:00,65.3,36.1,29.56,NNE,23,2.0,6.3,34,0.00,,,0.00,WUHU216HW,2013-09-21 17:16:00,
2013-09-21 11:17:00,65.3,36.1,29.56,NNE,23,2.0,6.3,34,0.00,,,0.00,WUHU216HW,2013-09-21 17:17:00,
2013-09-21 11:20:00,65.9,38.0,29.56,NNW,338,3.4,6.3,36,0.00,,,0.00,WUHU216HW,2013-09-21 17:20:00,
2013-09-21 11:21:00,65.9,38.0,29.56,North,0,4.0,6.3,36,0.00,,,0.00,WUHU216HW,2013-09-21 17:21:00,
2013-09-21 11:22:00,66.2,38.3,29.56,NNE,23,2.0,4.9,36,0.00,,,0.00,WUHU216HW,2013-09-21 17:22:00,
2013-09-21 11:25:00,66.4,37.1,29.56,NNE,23,3.6,7.2,34,0.00,,,0.00,WUHU216HW,2013-09-21 17:25:00,
2013-09-21 11:26:00,66.4,38.5,29.56,North,0,7.8,7.8,36,0.00,,,0.00,WUHU216HW,2013-09-21 17:26:00,
2013-09-21 11:27:00,66.4,37.8,29.56,NNE,23,6.9,7.8,35,0.00,,,0.00,WUHU216HW,2013-09-21 17:27:00,
2013-09-21 11:28:00,66.2,37.6,29.55,North,0,2.9,7.8,35,0.00,,,0.00,WUHU216HW,2013-09-21 17:28:00,
2013-09-21 11:30:00,66.4,38.5,29.55,NNE,23,3.4,7.8,36,0.00,,,0.00,WUHU216HW,2013-09-21 17:30:00,
2013-09-21 11:31:00,66.6,38.6,29.55,East,90,1.1,7.8,36,0.00,,,0.00,WUHU216HW,2013-09-21 17:31:00,
2013-09-21 11:32:00,66.6,38.6,29.55,North,0,1.6,7.8,36,0.00,,,0.00,WUHU216HW,2013-09-21 17:32:00,
2013-09-21 11:33:00,67.0,38.3,29.55,NNE,23,3.1,7.8,35,0.00,,,0.00,WUHU216HW,2013-09-21 17:33:00,
2013-09-21 11:36:00,67.3,39.2,29.55,NNE,23,2.7,7.8,36,0.00,,,0.00,WUHU216HW,2013-09-21 17:36:00,
2013-09-21 11:37:00,67.5,38.7,29.55,North,0,7.6,7.6,35,0.00,,,0.00,WUHU216HW,2013-09-21 17:37:00,
2013-09-21 11:38:00,67.5,38.7,29.55,NE,45,4.7,7.6,35,0.00,,,0.00,WUHU216HW,2013-09-21 17:38:00,
2013-09-21 11:41:00,67.3,38.5,29.55,North,0,4.7,8.3,35,0.00,,,0.00,WUHU216HW,2013-09-21 17:41:00,
2013-09-21 11:42:00,67.3,39.2,29.55,North,0,3.8,8.3,36,0.00,,,0.00,WUHU216HW,2013-09-21 17:42:00,
2013-09-21 11:43:00,67.3,39.2,29.55,North,0,3.8,8.3,36,0.00,,,0.00,WUHU216HW,2013-09-21 17:43:00,
2013-09-21 11:46:00,67.5,39.4,29.55,NNE,23,4.9,8.3,36,0.00,,,0.00,WUHU216HW,2013-09-21 17:46:00,
2013-09-21 11:47:00,67.5,40.1,29.55,ENE,68,5.1,8.3,37,0.00,,,0.00,WUHU216HW,2013-09-21 17:47:00,
2013-09-21 11:48:00,67.5,38.7,29.55,NNE,23,4.0,8.3,35,0.00,,,0.00,WUHU216HW,2013-09-21 17:48:00,
2013-09-21 11:49:00,67.5,38.7,29.55,North,0,4.0,8.3,35,0.00,,,0.00,WUHU216HW,2013-09-21 17:49:00,
2013-09-21 11:51:00,67.5,40.1,29.55,NNW,338,4.7,6.5,37,0.00,,,0.00,WUHU216HW,2013-09-21 17:51:00,
2013-09-21 11:52:00,67.3,39.2,29.55,NNW,338,7.2,7.2,36,0.00,,,0.00,WUHU216HW,2013-09-21 17:52:00,
2013-09-21 11:53:00,67.3,39.2,29.55,NNW,338,7.2,7.2,36,0.00,,,0.00,WUHU216HW,2013-09-21 17:53:00,
2013-09-21 11:54:00,67.3,39.2,29.55,NNW,338,7.2,7.2,36,0.00,,,0.00,WUHU216HW,2013-09-21 17:54:00,
2013-09-21 11:56:00,67.1,39.9,29.55,North,0,3.8,7.2,37,0.00,,,0.00,WUHU216HW,2013-09-21 17:56:00,
2013-09-21 11:57:00,67.1,39.9,29.55,NNE,23,4.0,7.2,37,0.00,,,0.00,WUHU216HW,2013-09-21 17:57:00,
2013-09-21 11:58:00,67.1,39.9,29.55,North,0,4.9,7.2,37,0.00,,,0.00,WUHU216HW,2013-09-21 17:58:00,
2013-09-21 12:00:00,67.3,40.0,29.55,North,0,3.6,7.2,37,0.00,,,0.00,WUHU216HW,2013-09-21 18:00:00,
2013-09-21 12:02:00,67.3,40.0,29.54,North,0,6.0,7.2,37,0.00,,,0.00,WUHU216HW,2013-09-21 18:02:00,
2013-09-21 12:03:00,67.3,40.0,29.54,NNW,338,4.0,7.2,37,0.00,,,0.00,WUHU216HW,2013-09-21 18:03:00,
2013-09-21 12:04:00,67.5,40.1,29.54,NNW,338,5.6,7.2,37,0.00,,,0.00,WUHU216HW,2013-09-21 18:04:00,
2013-09-21 12:06:00,67.7,40.3,29.55,NNW,338,2.9,6.3,37,0.00,,,0.00,WUHU216HW,2013-09-21 18:06:00,
2013-09-21 12:07:00,68.0,40.6,29.54,North,0,4.3,6.3,37,0.00,,,0.00,WUHU216HW,2013-09-21 18:07:00,
2013-09-21 12:08:00,68.0,40.6,29.54,North,0,4.3,6.3,37,0.00,,,0.00,WUHU216HW,2013-09-21 18:08:00,
2013-09-21 12:09:00,68.2,40.1,29.54,North,0,4.5,6.3,36,0.00,,,0.00,WUHU216HW,2013-09-21 18:09:00,
2013-09-21 12:11:00,68.2,40.8,29.54,North,0,4.9,8.7,37,0.00,,,0.00,WUHU216HW,2013-09-21 18:11:00,
2013-09-21 12:13:00,68.2,40.1,29.54,NNW,338,1.8,8.7,36,0.00,,,0.00,WUHU216HW,2013-09-21 18:13:00,
2013-09-21 12:14:00,68.2,40.8,29.54,NNW,338,3.4,8.7,37,0.00,,,0.00,WUHU216HW,2013-09-21 18:14:00,
2013-09-21 12:15:00,68.4,41.0,29.54,North,0,4.7,8.7,37,0.00,,,0.00,WUHU216HW,2013-09-21 18:15:00,
2013-09-21 12:17:00,68.8,41.3,29.54,NNE,23,8.3,8.7,37,0.00,,,0.00,WUHU216HW,2013-09-21 18:17:00,
2013-09-21 12:18:00,68.8,41.3,29.54,NNW,338,4.0,8.7,37,0.00,,,0.00,WUHU216HW,2013-09-21 18:18:00,
2013-09-21 12:19:00,69.1,40.9,29.54,WNW,293,3.6,8.7,36,0.00,,,0.00,WUHU216HW,2013-09-21 18:19:00,
2013-09-21 12:20:00,69.3,41.1,29.54,NNW,338,6.3,8.7,36,0.00,,,0.00,WUHU216HW,2013-09-21 18:20:00,
2013-09-21 12:22:00,69.8,40.8,29.54,NNW,338,6.9,8.5,35,0.00,,,0.00,WUHU216HW,2013-09-21 18:22:00,
2013-09-21 12:23:00,69.8,40.8,29.54,NNW,338,6.9,8.5,35,0.00,,,0.00,WUHU216HW,2013-09-21 18:23:00,
2013-09-21 12:24:00,70.0,40.2,29.54,NNW,338,4.7,8.5,34,0.00,,,0.00,WUHU216HW,2013-09-21 18:24:00,
2013-09-21 12:26:00,70.0,40.2,29.54,North,0,9.2,9.2,34,0.00,,,0.00,WUHU216HW,2013-09-21 18:26:00,
2013-09-21 12:27:00,70.2,40.3,29.53,NE,45,8.3,9.2,34,0.00,,,0.00,WUHU216HW,2013-09-21 18:27:00,
2013-09-21 12:28:00,70.2,39.6,29.53,ENE,68,8.1,9.2,33,0.00,,,0.00,WUHU216HW,2013-09-21 18:28:00,
2013-09-21 12:29:00,70.6,40.7,29.53,NE,45,6.9,9.2,34,0.00,,,0.00,WUHU216HW,2013-09-21 18:29:00,
2013-09-21 12:32:00,71.3,40.6,29.53,ENE,68,5.8,14.1,33,0.00,,,0.00,WUHU216HW,2013-09-21 18:32:00,
2013-09-21 12:33:00,71.8,41.0,29.53,SE,135,7.4,14.1,33,0.00,,,0.00,WUHU216HW,2013-09-21 18:33:00,
2013-09-21 12:34:00,72.2,41.4,29.53,SE,135,7.8,14.1,33,0.00,,,0.00,WUHU216HW,2013-09-21 18:34:00,
2013-09-21 12:37:00,73.4,40.9,29.53,SW,225,2.9,14.1,31,0.00,,,0.00,WUHU216HW,2013-09-21 18:37:00,
2013-09-21 12:38:00,73.6,41.9,29.53,SSW,203,4.0,14.1,32,0.00,,,0.00,WUHU216HW,2013-09-21 18:38:00,
2013-09-21 12:39:00,74.2,42.3,29.53,SSW,203,4.0,14.1,32,0.00,,,0.00,WUHU216HW,2013-09-21 18:39:00,
2013-09-21 12:42:00,74.9,40.4,29.53,NNW,338,4.9,8.7,29,0.00,,,0.00,WUHU216HW,2013-09-21 18:42:00,
2013-09-21 12:43:00,74.9,41.4,29.53,NNW,338,0.4,8.7,30,0.00,,,0.00,WUHU216HW,2013-09-21 18:43:00,
2013-09-21 12:44:00,75.2,39.7,29.53,East,90,5.1,7.8,28,0.00,,,0.00,WUHU216HW,2013-09-21 18:44:00,
2013-09-21 12:47:00,75.6,42.1,29.52,West,270,13.9,13.9,30,0.00,,,0.00,WUHU216HW,2013-09-21 18:47:00,
2013-09-21 12:48:00,75.8,42.2,29.53,West,270,9.4,13.9,30,0.00,,,0.00,WUHU216HW,2013-09-21 18:48:00,
2013-09-21 12:49:00,75.8,42.2,29.53,West,270,9.4,13.9,30,0.00,,,0.00,WUHU216HW,2013-09-21 18:49:00,
2013-09-21 12:52:00,76.5,37.7,29.52,SSW,203,10.1,13.9,25,0.00,,,0.00,WUHU216HW,2013-09-21 18:52:00,
2013-09-21 12:53:00,76.7,38.9,29.52,WSW,248,13.0,13.9,26,0.00,,,0.00,WUHU216HW,2013-09-21 18:53:00,
2013-09-21 12:54:00,76.9,39.1,29.52,SSW,203,12.1,13.9,26,0.00,,,0.00,WUHU216HW,2013-09-21 18:54:00,
2013-09-21 12:58:00,77.6,39.6,29.52,WSW,248,4.3,13.6,26,0.00,,,0.00,WUHU216HW,2013-09-21 18:58:00,
2013-09-21 12:59:00,77.6,38.6,29.52,SW,225,4.5,13.6,25,0.00,,,0.00,WUHU216HW,2013-09-21 18:59:00,
2013-09-21 13:03:00,78.3,37.1,29.52,South,180,8.9,13.6,23,0.00,,,0.00,WUHU216HW,2013-09-21 19:03:00,
2013-09-21 13:04:00,78.3,37.1,29.52,South,180,8.9,13.6,23,0.00,,,0.00,WUHU216HW,2013-09-21 19:04:00,
2013-09-21 13:05:00,78.7,37.4,29.52,SW,225,12.1,13.6,23,0.00,,,0.00,WUHU216HW,2013-09-21 19:05:00,
2013-09-21 13:08:00,79.0,39.8,29.52,West,270,7.2,13.2,25,0.00,,,0.00,WUHU216HW,2013-09-21 19:08:00,
2013-09-21 13:09:00,79.0,39.8,29.52,West,270,7.2,13.2,25,0.00,,,0.00,WUHU216HW,2013-09-21 19:09:00,
2013-09-21 13:10:00,79.0,39.8,29.52,West,270,7.2,12.8,25,0.00,,,0.00,WUHU216HW,2013-09-21 19:10:00,
2013-09-21 13:14:00,78.8,40.7,29.52,North,0,7.6,12.1,26,0.00,,,0.00,WUHU216HW,2013-09-21 19:14:00,
2013-09-21 13:15:00,78.8,40.7,29.52,North,0,7.6,12.1,26,0.00,,,0.00,WUHU216HW,2013-09-21 19:15:00,
2013-09-21 13:19:00,78.1,36.9,29.52,North,0,2.5,8.5,23,0.00,,,0.00,WUHU216HW,2013-09-21 19:19:00,
2013-09-21 13:20:00,78.1,36.9,29.51,North,0,2.0,8.5,23,0.00,,,0.00,WUHU216HW,2013-09-21 19:20:00,
2013-09-21 13:24:00,78.5,37.3,29.51,NNE,23,3.4,7.6,23,0.00,,,0.00,WUHU216HW,2013-09-21 19:24:00,
2013-09-21 13:25:00,78.5,37.3,29.51,NNE,23,3.4,7.6,23,0.00,,,0.00,WUHU216HW,2013-09-21 19:25:00,
2013-09-21 13:30:00,79.6,37.1,29.51,SSW,203,8.1,12.5,22,0.00,,,0.00,WUHU216HW,2013-09-21 19:30:00,
2013-09-21 13:35:00,81.2,37.4,29.51,SSE,158,10.1,12.5,21,0.00,,,0.00,WUHU216HW,2013-09-21 19:35:00,
2013-09-21 13:36:00,81.4,37.6,29.51,SSW,203,11.2,12.5,21,0.00,,,0.00,WUHU216HW,2013-09-21 19:36:00,
2013-09-21 13:40:00,82.1,38.2,29.50,SSW,203,15.2,15.2,21,0.00,,,0.00,WUHU216HW,2013-09-21 19:40:00,
2013-09-21 13:41:00,82.1,35.5,29.51,SSW,203,10.5,15.2,19,0.00,,,0.00,WUHU216HW,2013-09-21 19:41:00,
2013-09-21 13:42:00,82.1,35.5,29.50,WSW,248,15.7,15.7,19,0.00,,,0.00,WUHU216HW,2013-09-21 19:42:00,
2013-09-21 13:45:00,82.4,35.7,29.51,WSW,248,12.1,15.7,19,0.00,,,0.00,WUHU216HW,2013-09-21 19:45:00,
2013-09-21 13:46:00,82.4,35.7,29.51,SW,225,10.7,15.7,19,0.00,,,0.00,WUHU216HW,2013-09-21 19:46:00,
2013-09-21 13:48:00,82.4,35.7,29.50,WSW,248,14.3,15.7,19,0.00,,,0.00,WUHU216HW,2013-09-21 19:48:00,
2013-09-21 13:50:00,82.3,35.7,29.50,SW,225,12.8,15.7,19,0.00,,,0.00,WUHU216HW,2013-09-21 19:50:00,
2013-09-21 13:51:00,82.4,35.7,29.50,SSW,203,10.5,15.7,19,0.00,,,0.00,WUHU216HW,2013-09-21 19:51:00,
2013-09-21 13:52:00,82.3,35.7,29.50,SSW,203,14.8,15.7,19,0.00,,,0.00,WUHU216HW,2013-09-21 19:52:00,
2013-09-21 13:53:00,82.4,34.0,29.50,SW,225,12.8,15.7,18,0.00,,,0.00,WUHU216HW,2013-09-21 19:53:00,
2013-09-21 13:56:00,82.4,34.0,29.50,WSW,248,14.3,15.4,18,0.00,,,0.00,WUHU216HW,2013-09-21 19:56:00,
2013-09-21 13:57:00,82.4,34.0,29.50,SW,225,8.9,15.4,18,0.00,,,0.00,WUHU216HW,2013-09-21 19:57:00,
2013-09-21 13:59:00,82.4,34.0,29.50,WSW,248,9.2,15.4,18,0.00,,,0.00,WUHU216HW,2013-09-21 19:59:00,
2013-09-21 14:01:00,82.4,34.0,29.50,SW,225,13.2,15.4,18,0.00,,,0.00,WUHU216HW,2013-09-21 20:01:00,
2013-09-21 14:02:00,82.4,34.0,29.50,SSW,203,13.2,15.4,18,0.00,,,0.00,WUHU216HW,2013-09-21 20:02:00,
2013-09-21 14:04:00,82.4,34.0,29.50,SSW,203,11.9,15.2,18,0.00,,,0.00,WUHU216HW,2013-09-21 20:04:00,
2013-09-21 14:06:00,82.6,34.2,29.50,SW,225,15.9,15.9,18,0.00,,,0.00,WUHU216HW,2013-09-21 20:06:00,
2013-09-21 14:07:00,82.6,34.2,29.50,SSW,203,9.4,15.9,18,0.00,,,0.00,WUHU216HW,2013-09-21 20:07:00,
2013-09-21 14:09:00,82.6,34.2,29.50,SSW,203,9.4,15.9,18,0.00,,,0.00,WUHU216HW,2013-09-21 20:09:00,
2013-09-21 14:11:00,82.8,32.7,29.49,SW,225,21.7,21.7,17,0.00,,,0.00,WUHU216HW,2013-09-21 20:11:00,
2013-09-21 14:12:00,82.8,32.7,29.49,SW,225,23.0,23.0,17,0.00,,,0.00,WUHU216HW,2013-09-21 20:12:00,
2013-09-21 14:15:00,82.6,32.5,29.49,SW,225,15.7,23.0,17,0.00,,,0.00,WUHU216HW,2013-09-21 20:15:00,
2013-09-21 14:16:00,82.6,30.8,29.49,SW,225,15.7,23.0,16,0.00,,,0.00,WUHU216HW,2013-09-21 20:16:00,
2013-09-21 14:17:00,82.6,30.8,29.49,SW,225,15.7,23.0,16,0.00,,,0.00,WUHU216HW,2013-09-21 20:17:00,
2013-09-21 14:20:00,82.6,32.5,29.49,SW,225,12.1,23.0,17,0.00,,,0.00,WUHU216HW,2013-09-21 20:20:00,
2013-09-21 14:21:00,82.6,32.5,29.49,SW,225,13.6,23.0,17,0.00,,,0.00,WUHU216HW,2013-09-21 20:21:00,
2013-09-21 14:22:00,82.6,32.5,29.49,SW,225,13.6,23.0,17,0.00,,,0.00,WUHU216HW,2013-09-21 20:22:00,
2013-09-21 14:26:00,83.0,32.8,29.49,SW,225,15.0,16.3,17,0.00,,,0.00,WUHU216HW,2013-09-21 20:26:00,
2013-09-21 14:27:00,83.0,32.8,29.49,SW,225,14.3,16.3,17,0.00,,,0.00,WUHU216HW,2013-09-21 20:27:00,
2013-09-21 14:28:00,83.0,32.8,29.49,SW,225,14.1,19.9,17,0.00,,,0.00,WUHU216HW,2013-09-21 20:28:00,
2013-09-21 14:31:00,83.0,32.8,29.49,SW,225,15.0,19.9,17,0.00,,,0.00,WUHU216HW,2013-09-21 20:31:00,
2013-09-21 14:32:00,83.0,32.8,29.49,SW,225,15.0,19.9,17,0.00,,,0.00,WUHU216HW,2013-09-21 20:32:00,
2013-09-21 14:33:00,83.0,32.8,29.49,SW,225,15.0,19.9,17,0.00,,,0.00,WUHU216HW,2013-09-21 20:33:00,
2013-09-21 14:34:00,82.8,32.7,29.49,SW,225,13.4,19.9,17,0.00,,,0.00,WUHU216HW,2013-09-21 20:34:00,
2013-09-21 14:36:00,82.8,32.7,29.49,SW,225,11.6,19.9,17,0.00,,,0.00,WUHU216HW,2013-09-21 20:36:00,
2013-09-21 14:37:00,82.8,32.7,29.49,SW,225,11.6,19.9,17,0.00,,,0.00,WUHU216HW,2013-09-21 20:37:00,
2013-09-21 14:39:00,82.8,32.7,29.49,SW,225,11.0,15.0,17,0.00,,,0.00,WUHU216HW,2013-09-21 20:39:00,
2013-09-21 14:42:00,83.2,33.0,29.48,SSW,203,13.9,15.0,17,0.00,,,0.00,WUHU216HW,2013-09-21 20:42:00,
2013-09-21 14:43:00,83.2,33.0,29.48,SW,225,15.2,15.7,17,0.00,,,0.00,WUHU216HW,2013-09-21 20:43:00,
2013-09-21 14:44:00,83.2,33.0,29.48,SW,225,10.3,15.7,17,0.00,,,0.00,WUHU216HW,2013-09-21 20:44:00,
2013-09-21 14:47:00,83.2,33.0,29.49,SW,225,12.8,16.8,17,0.00,,,0.00,WUHU216HW,2013-09-21 20:47:00,
2013-09-21 14:48:00,83.2,33.0,29.48,SW,225,9.8,16.8,17,0.00,,,0.00,WUHU216HW,2013-09-21 20:48:00,
2013-09-21 14:49:00,83.2,33.0,29.48,SW,225,9.8,16.8,17,0.00,,,0.00,WUHU216HW,2013-09-21 20:49:00,
2013-09-21 14:52:00,83.2,33.0,29.48,SW,225,9.8,16.8,17,0.00,,,0.00,WUHU216HW,2013-09-21 20:52:00,
2013-09-21 14:53:00,83.2,33.0,29.48,North,0,0.0,16.8,17,0.00,,,0.00,WUHU216HW,2013-09-21 20:53:00,
2013-09-21 14:54:00,83.2,33.0,29.48,North,0,0.0,16.8,17,0.00,,,0.00,WUHU216HW,2013-09-21 20:54:00,
2013-09-21 14:57:00,83.7,33.3,29.48,WSW,248,14.3,14.3,17,0.00,,,0.00,WUHU216HW,2013-09-21 20:57:00,
2013-09-21 14:59:00,83.5,33.2,29.48,SW,225,11.4,14.3,17,0.00,,,0.00,WUHU216HW,2013-09-21 20:59:00,
2013-09-21 15:00:00,83.5,33.2,29.48,SW,225,11.4,14.3,17,0.00,,,0.00,WUHU216HW,2013-09-21 21:00:00,
2013-09-21 15:02:00,83.5,33.2,29.48,WSW,248,7.8,14.3,17,0.00,,,0.00,WUHU216HW,2013-09-21 21:02:00,
2013-09-21 15:03:00,83.5,33.2,29.48,WSW,248,7.8,14.3,17,0.00,,,0.00,WUHU216HW,2013-09-21 21:03:00,
2013-09-21 15:04:00,83.5,33.2,29.48,WSW,248,7.8,14.3,17,0.00,,,0.00,WUHU216HW,2013-09-21 21:04:00,
2013-09-21 15:05:00,83.5,33.2,29.48,WSW,248,7.8,14.3,17,0.00,,,0.00,WUHU216HW,2013-09-21 21:05:00,
2013-09-21 15:07:00,83.9,31.8,29.48,SW,225,11.0,14.3,16,0.00,,,0.00,WUHU216HW,2013-09-21 21:07:00,
2013-09-21 15:08:00,83.9,31.8,29.48,SW,225,11.0,14.3,16,0.00,,,0.00,WUHU216HW,2013-09-21 21:08:00,
2013-09-21 15:10:00,84.1,33.6,29.48,SW,225,12.5,12.5,17,0.00,,,0.00,WUHU216HW,2013-09-21 21:10:00,
2013-09-21 15:12:00,84.4,32.2,29.48,SSW,203,9.8,14.3,16,0.00,,,0.00,WUHU216HW,2013-09-21 21:12:00,
2013-09-21 15:13:00,84.6,32.3,29.48,SSW,203,14.3,14.3,16,0.00,,,0.00,WUHU216HW,2013-09-21 21:13:00,
2013-09-21 15:15:00,84.6,30.6,29.48,SSW,203,15.7,15.7,15,0.00,,,0.00,WUHU216HW,2013-09-21 21:15:00,
2013-09-21 15:18:00,84.8,32.5,29.47,SSW,203,7.6,16.8,16,0.00,,,0.00,WUHU216HW,2013-09-21 21:18:00,
2013-09-21 15:19:00,84.6,30.6,29.47,SW,225,11.0,16.8,15,0.00,,,0.00,WUHU216HW,2013-09-21 21:19:00,
2013-09-21 15:20:00,84.6,30.6,29.47,SSW,203,14.3,16.8,15,0.00,,,0.00,WUHU216HW,2013-09-21 21:20:00,
2013-09-21 15:21:00,84.6,30.6,29.47,South,180,11.9,16.8,15,0.00,,,0.00,WUHU216HW,2013-09-21 21:21:00,
2013-09-21 15:23:00,84.2,30.3,29.48,South,180,15.2,16.8,15,0.00,,,0.00,WUHU216HW,2013-09-21 21:23:00,
2013-09-21 15:24:00,84.1,31.9,29.48,SW,225,10.7,16.8,16,0.00,,,0.00,WUHU216HW,2013-09-21 21:24:00,
2013-09-21 15:25:00,84.1,31.9,29.48,SW,225,10.7,16.8,16,0.00,,,0.00,WUHU216HW,2013-09-21 21:25:00,
2013-09-21 15:26:00,84.1,31.9,29.47,SW,225,10.7,16.8,16,0.00,,,0.00,WUHU216HW,2013-09-21 21:26:00,
2013-09-21 15:28:00,83.2,31.2,29.48,SW,225,12.1,15.2,16,0.00,,,0.00,WUHU216HW,2013-09-21 21:28:00,
2013-09-21 15:29:00,83.2,31.2,29.47,SW,225,11.4,15.2,16,0.00,,,0.00,WUHU216HW,2013-09-21 21:29:00,
2013-09-21 15:30:00,82.8,31.0,29.48,WSW,248,8.1,15.2,16,0.00,,,0.00,WUHU216HW,2013-09-21 21:30:00,
2013-09-21 15:31:00,82.8,31.0,29.48,WSW,248,8.1,15.2,16,0.00,,,0.00,WUHU216HW,2013-09-21 21:31:00,
2013-09-21 15:33:00,82.8,31.0,29.47,WSW,248,8.1,14.1,16,0.00,,,0.00,WUHU216HW,2013-09-21 21:33:00,
2013-09-21 15:34:00,82.4,30.7,29.47,SW,225,13.6,14.1,16,0.00,,,0.00,WUHU216HW,2013-09-21 21:34:00,
2013-09-21 15:36:00,82.1,30.4,29.47,SSW,203,10.1,14.1,16,0.00,,,0.00,WUHU216HW,2013-09-21 21:36:00,
2013-09-21 15:38:00,81.9,30.2,29.47,SW,225,13.2,14.1,16,0.00,,,0.00,WUHU216HW,2013-09-21 21:38:00,
2013-09-21 15:40:00,81.7,30.1,29.47,WSW,248,15.7,15.7,16,0.00,,,0.00,WUHU216HW,2013-09-21 21:40:00,
2013-09-21 15:41:00,81.5,30.0,29.47,SW,225,17.9,17.9,16,0.00,,,0.00,WUHU216HW,2013-09-21 21:41:00,
2013-09-21 15:43:00,81.2,29.7,29.47,WSW,248,12.5,20.6,16,0.00,,,0.00,WUHU216HW,2013-09-21 21:43:00,
2013-09-21 15:45:00,80.8,29.3,29.47,SW,225,12.8,20.6,16,0.00,,,0.00,WUHU216HW,2013-09-21 21:45:00,
2013-09-21 15:46:00,80.8,31.1,29.47,SW,225,12.8,20.6,17,0.00,,,0.00,WUHU216HW,2013-09-21 21:46:00,
2013-09-21 15:47:00,80.8,31.1,29.47,SW,225,11.0,20.6,17,0.00,,,0.00,WUHU216HW,2013-09-21 21:47:00,
2013-09-21 15:48:00,80.6,31.0,29.47,SW,225,10.5,20.6,17,0.00,,,0.00,WUHU216HW,2013-09-21 21:48:00,
2013-09-21 15:51:00,80.6,29.3,29.47,West,270,12.5,20.6,16,0.00,,,0.00,WUHU216HW,2013-09-21 21:51:00,
2013-09-21 15:52:00,80.6,29.3,29.47,SW,225,9.2,15.4,16,0.00,,,0.00,WUHU216HW,2013-09-21 21:52:00,
2013-09-21 15:53:00,80.6,31.0,29.46,SW,225,8.1,14.3,17,0.00,,,0.00,WUHU216HW,2013-09-21 21:53:00,
2013-09-21 15:56:00,80.6,29.3,29.46,WSW,248,14.8,14.8,16,0.00,,,0.00,WUHU216HW,2013-09-21 21:56:00,
2013-09-21 15:57:00,80.6,31.0,29.47,SW,225,9.8,14.8,17,0.00,,,0.00,WUHU216HW,2013-09-21 21:57:00,
2013-09-21 15:58:00,80.6,31.0,29.46,WSW,248,13.2,14.8,17,0.00,,,0.00,WUHU216HW,2013-09-21 21:58:00,
2013-09-21 16:01:00,80.6,31.0,29.46,SW,225,7.2,14.8,17,0.00,,,0.00,WUHU216HW,2013-09-21 22:01:00,
2013-09-21 16:02:00,80.5,30.8,29.46,WSW,248,10.7,14.8,17,0.00,,,0.00,WUHU216HW,2013-09-21 22:02:00,
2013-09-21 16:04:00,80.5,29.1,29.46,SW,225,12.8,14.8,16,0.00,,,0.00,WUHU216HW,2013-09-21 22:04:00,
2013-09-21 16:06:00,80.5,30.8,29.46,WSW,248,9.8,13.2,17,0.00,,,0.00,WUHU216HW,2013-09-21 22:06:00,
2013-09-21 16:07:00,80.5,30.8,29.46,WSW,248,11.4,13.2,17,0.00,,,0.00,WUHU216HW,2013-09-21 22:07:00,
2013-09-21 16:09:00,80.5,29.1,29.46,SW,225,12.8,13.2,16,0.00,,,0.00,WUHU216HW,2013-09-21 22:09:00,
2013-09-21 16:11:00,80.5,29.1,29.46,WSW,248,7.8,12.8,16,0.00,,,0.00,WUHU216HW,2013-09-21 22:11:00,
2013-09-21 16:12:00,80.5,29.1,29.46,West,270,9.2,12.8,16,0.00,,,0.00,WUHU216HW,2013-09-21 22:12:00,
2013-09-21 16:13:00,80.3,28.9,29.46,West,270,11.2,12.8,16,0.00,,,0.00,WUHU216HW,2013-09-21 22:13:00,
2013-09-21 16:14:00,80.3,28.9,29.46,WSW,248,11.4,12.8,16,0.00,,,0.00,WUHU216HW,2013-09-21 22:14:00,
2013-09-21 16:16:00,80.3,30.6,29.46,WSW,248,12.1,13.2,17,0.00,,,0.00,WUHU216HW,2013-09-21 22:16:00,
2013-09-21 16:17:00,80.3,30.6,29.46,WSW,248,12.8,13.2,17,0.00,,,0.00,WUHU216HW,2013-09-21 22:17:00,
2013-09-21 16:18:00,80.3,30.6,29.46,SW,225,9.6,13.2,17,0.00,,,0.00,WUHU216HW,2013-09-21 22:18:00,
2013-09-21 16:19:00,80.3,30.6,29.46,SW,225,9.6,13.2,17,0.00,,,0.00,WUHU216HW,2013-09-21 22:19:00,
2013-09-21 16:21:00,80.3,30.6,29.45,SW,225,13.6,13.6,17,0.00,,,0.00,WUHU216HW,2013-09-21 22:21:00,
2013-09-21 16:22:00,80.3,30.6,29.45,SW,225,11.9,13.6,17,0.00,,,0.00,WUHU216HW,2013-09-21 22:22:00,
2013-09-21 16:24:00,80.5,30.8,29.45,WSW,248,8.5,13.6,17,0.00,,,0.00,WUHU216HW,2013-09-21 22:24:00,
2013-09-21 16:27:00,80.8,31.1,29.45,WSW,248,5.4,13.6,17,0.00,,,0.00,WUHU216HW,2013-09-21 22:27:00,
2013-09-21 16:29:00,81.0,33.0,29.45,WSW,248,7.8,13.6,18,0.00,,,0.00,WUHU216HW,2013-09-21 22:29:00,
2013-09-21 16:32:00,81.4,31.5,29.45,WSW,248,12.8,12.8,17,0.00,,,0.00,WUHU216HW,2013-09-21 22:32:00,
2013-09-21 16:33:00,81.5,31.7,29.45,WSW,248,12.8,14.5,17,0.00,,,0.00,WUHU216HW,2013-09-21 22:33:00,
2013-09-21 16:34:00,81.4,29.8,29.45,WNW,293,8.3,14.5,16,0.00,,,0.00,WUHU216HW,2013-09-21 22:34:00,
2013-09-21 16:37:00,81.0,29.5,29.45,WSW,248,9.4,14.5,16,0.00,,,0.00,WUHU216HW,2013-09-21 22:37:00,
2013-09-21 16:38:00,81.0,31.2,29.45,WSW,248,9.8,14.5,17,0.00,,,0.00,WUHU216HW,2013-09-21 22:38:00,
2013-09-21 16:39:00,80.6,29.3,29.45,West,270,5.1,14.5,16,0.00,,,0.00,WUHU216HW,2013-09-21 22:39:00,
2013-09-21 16:42:00,80.3,30.6,29.45,SW,225,5.8,12.8,17,0.00,,,0.00,WUHU216HW,2013-09-21 22:42:00,
2013-09-21 16:44:00,80.3,30.6,29.45,South,180,8.5,9.8,17,0.00,,,0.00,WUHU216HW,2013-09-21 22:44:00,
2013-09-21 16:45:00,80.3,30.6,29.45,SW,225,9.8,11.4,17,0.00,,,0.00,WUHU216HW,2013-09-21 22:45:00,
2013-09-21 16:47:00,80.1,30.4,29.45,SSW,203,13.4,13.9,17,0.00,,,0.00,WUHU216HW,2013-09-21 22:47:00,
2013-09-21 16:49:00,79.9,30.3,29.45,SW,225,11.6,15.9,17,0.00,,,0.00,WUHU216HW,2013-09-21 22:49:00,
2013-09-21 16:50:00,79.9,30.3,29.45,SW,225,14.3,15.9,17,0.00,,,0.00,WUHU216HW,2013-09-21 22:50:00,
2013-09-21 16:52:00,79.9,30.3,29.44,WSW,248,13.4,16.1,17,0.00,,,0.00,WUHU216HW,2013-09-21 22:52:00,
2013-09-21 16:53:00,79.9,30.3,29.44,SW,225,14.1,16.1,17,0.00,,,0.00,WUHU216HW,2013-09-21 22:53:00,
2013-09-21 16:54:00,79.7,30.2,29.45,WSW,248,12.5,16.1,17,0.00,,,0.00,WUHU216HW,2013-09-21 22:54:00,
2013-09-21 16:56:00,79.6,31.7,29.44,SW,225,8.5,16.1,18,0.00,,,0.00,WUHU216HW,2013-09-21 22:56:00,
2013-09-21 16:58:00,79.6,31.7,29.45,SSW,203,6.9,16.1,18,0.00,,,0.00,WUHU216HW,2013-09-21 22:58:00,
2013-09-21 16:59:00,79.6,31.7,29.45,SSW,203,6.9,16.1,18,0.00,,,0.00,WUHU216HW,2013-09-21 22:59:00,
2013-09-21 17:01:00,79.4,31.5,29.45,SSW,203,7.8,16.1,18,0.00,,,0.00,WUHU216HW,2013-09-21 23:01:00,
2013-09-21 17:03:00,79.4,31.5,29.45,SW,225,13.6,16.3,18,0.00,,,0.00,WUHU216HW,2013-09-21 23:03:00,
2013-09-21 17:04:00,79.2,31.3,29.45,SW,225,9.8,16.3,18,0.00,,,0.00,WUHU216HW,2013-09-21 23:04:00,
2013-09-21 17:06:00,79.0,31.2,29.44,SW,225,8.5,16.3,18,0.00,,,0.00,WUHU216HW,2013-09-21 23:06:00,
2013-09-21 17:08:00,79.0,31.2,29.44,SW,225,7.8,16.3,18,0.00,,,0.00,WUHU216HW,2013-09-21 23:08:00,
2013-09-21 17:09:00,79.0,31.2,29.44,SW,225,7.8,16.3,18,0.00,,,0.00,WUHU216HW,2013-09-21 23:09:00,
2013-09-21 17:11:00,78.8,31.1,29.44,SW,225,7.6,16.3,18,0.00,,,0.00,WUHU216HW,2013-09-21 23:11:00,
2013-09-21 17:14:00,78.8,31.1,29.44,SSW,203,7.2,12.8,18,0.00,,,0.00,WUHU216HW,2013-09-21 23:14:00,
2013-09-21 17:17:00,78.8,32.7,29.44,SSW,203,4.5,12.8,19,0.00,,,0.00,WUHU216HW,2013-09-21 23:17:00,
2013-09-21 17:19:00,78.8,32.7,29.44,SSW,203,6.7,9.8,19,0.00,,,0.00,WUHU216HW,2013-09-21 23:19:00,
2013-09-21 17:22:00,78.8,32.7,29.44,SSW,203,4.7,9.8,19,0.00,,,0.00,WUHU216HW,2013-09-21 23:22:00,
2013-09-21 17:24:00,79.0,32.9,29.44,SSW,203,4.9,8.5,19,0.00,,,0.00,WUHU216HW,2013-09-21 23:24:00,
2013-09-21 17:25:00,78.8,32.7,29.44,SW,225,4.5,8.5,19,0.00,,,0.00,WUHU216HW,2013-09-21 23:25:00,
2013-09-21 17:28:00,79.0,32.9,29.44,SW,225,6.0,8.5,19,0.00,,,0.00,WUHU216HW,2013-09-21 23:28:00,
2013-09-21 17:29:00,79.0,32.9,29.44,SW,225,5.4,7.6,19,0.00,,,0.00,WUHU216HW,2013-09-21 23:29:00,
2013-09-21 17:30:00,78.8,32.7,29.44,SW,225,4.7,7.6,19,0.00,,,0.00,WUHU216HW,2013-09-21 23:30:00,
2013-09-21 17:33:00,78.8,32.7,29.44,SW,225,5.6,8.9,19,0.00,,,0.00,WUHU216HW,2013-09-21 23:33:00,
2013-09-21 17:34:00,78.8,32.7,29.44,SSW,203,3.6,8.9,19,0.00,,,0.00,WUHU216HW,2013-09-21 23:34:00,
2013-09-21 17:35:00,78.7,32.6,29.44,SSW,203,3.8,8.9,19,0.00,,,0.00,WUHU216HW,2013-09-21 23:35:00,
2013-09-21 17:38:00,78.5,32.4,29.44,SW,225,4.0,8.9,19,0.00,,,0.00,WUHU216HW,2013-09-21 23:38:00,
2013-09-21 17:39:00,78.5,32.4,29.44,SW,225,5.8,8.9,19,0.00,,,0.00,WUHU216HW,2013-09-21 23:39:00,
2013-09-21 17:40:00,78.5,32.4,29.44,SW,225,9.2,9.2,19,0.00,,,0.00,WUHU216HW,2013-09-21 23:40:00,
2013-09-21 17:43:00,78.3,32.3,29.44,WSW,248,9.8,9.8,19,0.00,,,0.00,WUHU216HW,2013-09-21 23:43:00,
2013-09-21 17:44:00,78.1,32.1,29.44,WSW,248,6.9,9.8,19,0.00,,,0.00,WUHU216HW,2013-09-21 23:44:00,
2013-09-21 17:45:00,78.1,32.1,29.44,SW,225,8.1,9.8,19,0.00,,,0.00,WUHU216HW,2013-09-21 23:45:00,
2013-09-21 17:46:00,77.9,32.0,29.44,SSW,203,10.3,10.3,19,0.00,,,0.00,WUHU216HW,2013-09-21 23:46:00,
2013-09-21 17:48:00,77.9,32.0,29.44,SSW,203,11.4,11.4,19,0.00,,,0.00,WUHU216HW,2013-09-21 23:48:00,
2013-09-21 17:49:00,77.8,31.9,29.44,SW,225,9.8,11.4,19,0.00,,,0.00,WUHU216HW,2013-09-21 23:49:00,
2013-09-21 17:50:00,77.8,33.5,29.44,SW,225,8.3,11.4,20,0.00,,,0.00,WUHU216HW,2013-09-21 23:50:00,
2013-09-21 17:51:00,77.8,31.9,29.44,SW,225,7.8,11.4,19,0.00,,,0.00,WUHU216HW,2013-09-21 23:51:00,
2013-09-21 17:53:00,77.4,34.3,29.44,SW,225,6.5,11.4,21,0.00,,,0.00,WUHU216HW,2013-09-21 23:53:00,
2013-09-21 17:54:00,77.4,33.2,29.44,SW,225,4.9,11.4,20,0.00,,,0.00,WUHU216HW,2013-09-21 23:54:00,
2013-09-21 17:55:00,77.4,34.3,29.44,SSW,203,5.6,11.4,21,0.00,,,0.00,WUHU216HW,2013-09-21 23:55:00,
2013-09-21 17:56:00,77.4,34.3,29.44,SW,225,6.9,11.4,21,0.00,,,0.00,WUHU216HW,2013-09-21 23:56:00,
2013-09-21 17:59:00,77.2,34.1,29.44,SW,225,4.9,9.8,21,0.00,,,0.00,WUHU216HW,2013-09-21 23:59:00,
2013-09-21 18:00:00,77.2,34.1,29.44,SSW,203,5.4,8.7,21,0.00,,,0.00,WUHU216HW,2013-09-22 00:00:00,
2013-09-21 18:01:00,77.0,34.0,29.44,SSW,203,4.7,8.7,21,0.00,,,0.00,WUHU216HW,2013-09-22 00:01:00,
2013-09-21 18:02:00,77.0,34.0,29.44,SSW,203,4.3,8.7,21,0.00,,,0.00,WUHU216HW,2013-09-22 00:02:00,
2013-09-21 18:04:00,76.9,33.9,29.44,WSW,248,6.3,10.1,21,0.00,,,0.00,WUHU216HW,2013-09-22 00:04:00,
2013-09-21 18:05:00,76.9,33.9,29.44,SW,225,6.3,10.1,21,0.00,,,0.00,WUHU216HW,2013-09-22 00:05:00,
2013-09-21 18:06:00,76.9,33.9,29.44,SW,225,4.5,10.1,21,0.00,,,0.00,WUHU216HW,2013-09-22 00:06:00,
2013-09-21 18:07:00,76.9,33.9,29.44,SW,225,4.7,10.1,21,0.00,,,0.00,WUHU216HW,2013-09-22 00:07:00,
2013-09-21 18:09:00,76.7,33.7,29.44,WSW,248,2.7,10.1,21,0.00,,,0.00,WUHU216HW,2013-09-22 00:09:00,
2013-09-21 18:10:00,76.7,34.8,29.44,SW,225,8.5,10.1,22,0.00,,,0.00,WUHU216HW,2013-09-22 00:10:00,
2013-09-21 18:11:00,76.7,33.7,29.44,WSW,248,6.5,10.1,21,0.00,,,0.00,WUHU216HW,2013-09-22 00:11:00,
2013-09-21 18:12:00,76.7,33.7,29.44,SW,225,6.3,10.1,21,0.00,,,0.00,WUHU216HW,2013-09-22 00:12:00,
2013-09-21 18:14:00,76.5,33.6,29.44,SW,225,3.8,8.5,21,0.00,,,0.00,WUHU216HW,2013-09-22 00:14:00,
2013-09-21 18:15:00,76.5,33.6,29.44,SW,225,4.7,8.5,21,0.00,,,0.00,WUHU216HW,2013-09-22 00:15:00,
2013-09-21 18:17:00,76.3,33.4,29.45,SW,225,5.4,8.5,21,0.00,,,0.00,WUHU216HW,2013-09-22 00:17:00,
2013-09-21 18:19:00,76.1,34.3,29.45,WSW,248,5.8,8.5,22,0.00,,,0.00,WUHU216HW,2013-09-22 00:19:00,
2013-09-21 18:20:00,76.0,34.1,29.44,SW,225,6.0,7.4,22,0.00,,,0.00,WUHU216HW,2013-09-22 00:20:00,
2013-09-21 18:22:00,76.0,33.1,29.44,SW,225,9.2,9.2,21,0.00,,,0.00,WUHU216HW,2013-09-22 00:22:00,
2013-09-21 18:24:00,75.8,34.0,29.44,SW,225,4.9,9.2,22,0.00,,,0.00,WUHU216HW,2013-09-22 00:24:00,
2013-09-21 18:25:00,75.8,32.9,29.44,SW,225,6.3,9.2,21,0.00,,,0.00,WUHU216HW,2013-09-22 00:25:00,
2013-09-21 18:27:00,75.6,32.9,29.45,SSE,158,8.5,9.2,21,0.00,,,0.00,WUHU216HW,2013-09-22 00:27:00,
2013-09-21 18:28:00,75.6,32.9,29.45,SW,225,4.7,9.2,21,0.00,,,0.00,WUHU216HW,2013-09-22 00:28:00,
2013-09-21 18:30:00,75.6,33.8,29.45,WSW,248,4.9,9.2,22,0.00,,,0.00,WUHU216HW,2013-09-22 00:30:00,
2013-09-21 18:31:00,75.4,33.7,29.45,SW,225,6.7,9.2,22,0.00,,,0.00,WUHU216HW,2013-09-22 00:31:00,
2013-09-21 18:33:00,75.2,32.5,29.45,WNW,293,4.0,8.5,21,0.00,,,0.00,WUHU216HW,2013-09-22 00:33:00,
2013-09-21 18:35:00,74.9,33.3,29.46,NNW,338,10.3,10.3,22,0.00,,,0.00,WUHU216HW,2013-09-22 00:35:00,
2013-09-21 18:36:00,74.9,33.3,29.46,NNW,338,10.3,10.3,22,0.00,,,0.00,WUHU216HW,2013-09-22 00:36:00,
2013-09-21 18:39:00,72.9,32.6,29.45,NW,315,13.4,17.2,23,0.00,,,0.00,WUHU216HW,2013-09-22 00:39:00,
2013-09-21 18:41:00,72.0,32.9,29.46,North,0,14.3,17.2,24,0.00,,,0.00,WUHU216HW,2013-09-22 00:41:00,
2013-09-21 18:44:00,70.9,32.9,29.46,NNW,338,8.3,18.6,25,0.00,,,0.00,WUHU216HW,2013-09-22 00:44:00,
2013-09-21 18:46:00,70.7,32.8,29.46,NNW,338,14.5,18.6,25,0.00,,,0.00,WUHU216HW,2013-09-22 00:46:00,
2013-09-21 18:49:00,70.4,32.5,29.46,NW,315,9.8,18.6,25,0.00,,,0.00,WUHU216HW,2013-09-22 00:49:00,
2013-09-21 18:51:00,70.2,32.3,29.46,WNW,293,14.1,18.6,25,0.00,,,0.00,WUHU216HW,2013-09-22 00:51:00,
2013-09-21 18:52:00,70.2,32.3,29.46,NW,315,14.3,18.1,25,0.00,,,0.00,WUHU216HW,2013-09-22 00:52:00,
2013-09-21 18:54:00,70.2,32.3,29.46,NW,315,9.6,17.0,25,0.00,,,0.00,WUHU216HW,2013-09-22 00:54:00,
2013-09-21 18:55:00,70.2,32.3,29.46,NW,315,11.0,17.0,25,0.00,,,0.00,WUHU216HW,2013-09-22 00:55:00,
2013-09-21 18:56:00,70.0,32.2,29.46,NW,315,11.6,17.0,25,0.00,,,0.00,WUHU216HW,2013-09-22 00:56:00,
2013-09-21 18:57:00,70.0,32.2,29.46,NW,315,11.6,17.0,25,0.00,,,0.00,WUHU216HW,2013-09-22 00:57:00,
2013-09-21 19:00:00,69.8,33.0,29.46,North,0,3.6,14.3,26,0.00,,,0.00,WUHU216HW,2013-09-22 01:00:00,
2013-09-21 19:02:00,69.5,32.8,29.46,NW,315,12.8,14.3,26,0.00,,,0.00,WUHU216HW,2013-09-22 01:02:00,
2013-09-21 19:05:00,69.1,32.4,29.46,NNW,338,15.0,16.8,26,0.00,,,0.00,WUHU216HW,2013-09-22 01:05:00,
2013-09-21 19:07:00,69.1,32.4,29.46,NW,315,17.0,17.9,26,0.00,,,0.00,WUHU216HW,2013-09-22 01:07:00,
2013-09-21 19:08:00,68.9,32.3,29.46,NNW,338,10.5,17.9,26,0.00,,,0.00,WUHU216HW,2013-09-22 01:08:00,
2013-09-21 19:10:00,68.9,32.3,29.46,NW,315,11.6,17.9,26,0.00,,,0.00,WUHU216HW,2013-09-22 01:10:00,
2013-09-21 19:12:00,68.8,34.1,29.46,NNW,338,7.2,17.9,28,0.00,,,0.00,WUHU216HW,2013-09-22 01:12:00,
2013-09-21 19:13:00,68.8,34.1,29.46,NNW,338,11.4,17.9,28,0.00,,,0.00,WUHU216HW,2013-09-22 01:13:00,
2013-09-21 19:15:00,68.6,33.9,29.46,NNW,338,12.3,17.9,28,0.00,,,0.00,WUHU216HW,2013-09-22 01:15:00,
2013-09-21 19:17:00,68.2,33.7,29.46,NNW,338,15.7,15.7,28,0.00,,,0.00,WUHU216HW,2013-09-22 01:17:00,
2013-09-21 19:18:00,68.2,32.7,29.46,NNW,338,13.9,15.7,27,0.00,,,0.00,WUHU216HW,2013-09-22 01:18:00,
2013-09-21 19:20:00,68.0,33.5,29.46,NNW,338,11.6,15.7,28,0.00,,,0.00,WUHU216HW,2013-09-22 01:20:00,
2013-09-21 19:21:00,68.0,33.5,29.46,NW,315,15.2,15.7,28,0.00,,,0.00,WUHU216HW,2013-09-22 01:21:00,
2013-09-21 19:22:00,68.0,33.5,29.46,NW,315,12.1,15.7,28,0.00,,,0.00,WUHU216HW,2013-09-22 01:22:00,
2013-09-21 19:23:00,68.0,33.5,29.46,NNW,338,11.4,15.7,28,0.00,,,0.00,WUHU216HW,2013-09-22 01:23:00,
2013-09-21 19:25:00,67.9,33.3,29.46,NW,315,18.6,18.6,28,0.00,,,0.00,WUHU216HW,2013-09-22 01:25:00,
2013-09-21 19:26:00,68.0,33.5,29.46,NNW,338,16.8,18.6,28,0.00,,,0.00,WUHU216HW,2013-09-22 01:26:00,
2013-09-21 19:27:00,67.9,33.3,29.46,NNW,338,13.6,18.6,28,0.00,,,0.00,WUHU216HW,2013-09-22 01:27:00,
2013-09-21 19:28:00,67.7,33.2,29.46,NNW,338,16.3,18.6,28,0.00,,,0.00,WUHU216HW,2013-09-22 01:28:00,
2013-09-21 19:29:00,67.9,33.3,29.46,NNW,338,15.9,18.6,28,0.00,,,0.00,WUHU216HW,2013-09-22 01:29:00,
2013-09-21 19:31:00,67.9,33.3,29.46,NNW,338,14.5,18.6,28,0.00,,,0.00,WUHU216HW,2013-09-22 01:31:00,
2013-09-21 19:32:00,67.7,33.2,29.46,NNW,338,14.5,18.6,28,0.00,,,0.00,WUHU216HW,2013-09-22 01:32:00,
2013-09-21 19:34:00,67.7,33.2,29.46,NW,315,16.1,18.6,28,0.00,,,0.00,WUHU216HW,2013-09-22 01:34:00,
2013-09-21 19:36:00,67.7,33.2,29.46,NNW,338,13.4,16.6,28,0.00,,,0.00,WUHU216HW,2013-09-22 01:36:00,
2013-09-21 19:37:00,67.7,33.2,29.46,NW,315,13.2,16.3,28,0.00,,,0.00,WUHU216HW,2013-09-22 01:37:00,
2013-09-21 19:39:00,67.5,33.0,29.46,NNW,338,12.5,16.1,28,0.00,,,0.00,WUHU216HW,2013-09-22 01:39:00,
2013-09-21 19:41:00,67.3,32.9,29.46,NW,315,13.9,17.2,28,0.00,,,0.00,WUHU216HW,2013-09-22 01:41:00,
2013-09-21 19:42:00,67.3,32.9,29.46,NW,315,13.9,17.2,28,0.00,,,0.00,WUHU216HW,2013-09-22 01:42:00,
2013-09-21 19:43:00,67.3,32.9,29.46,NNW,338,13.4,17.2,28,0.00,,,0.00,WUHU216HW,2013-09-22 01:43:00,
2013-09-21 19:44:00,67.3,32.9,29.47,NNW,338,11.6,17.2,28,0.00,,,0.00,WUHU216HW,2013-09-22 01:44:00,
2013-09-21 19:46:00,67.1,32.8,29.47,North,0,11.2,18.6,28,0.00,,,0.00,WUHU216HW,2013-09-22 01:46:00,
2013-09-21 19:47:00,67.1,32.8,29.47,North,0,11.2,18.6,28,0.00,,,0.00,WUHU216HW,2013-09-22 01:47:00,
2013-09-21 19:48:00,67.1,31.8,29.47,NNW,338,13.9,18.6,27,0.00,,,0.00,WUHU216HW,2013-09-22 01:48:00,
2013-09-21 19:49:00,67.1,32.8,29.47,NNW,338,15.7,18.6,28,0.00,,,0.00,WUHU216HW,2013-09-22 01:49:00,
2013-09-21 19:50:00,67.1,31.8,29.47,NNW,338,14.8,18.6,27,0.00,,,0.00,WUHU216HW,2013-09-22 01:50:00,
2013-09-21 19:52:00,67.0,32.6,29.47,NNW,338,12.5,18.6,28,0.00,,,0.00,WUHU216HW,2013-09-22 01:52:00,
2013-09-21 19:53:00,67.0,32.6,29.47,North,0,12.8,18.6,28,0.00,,,0.00,WUHU216HW,2013-09-22 01:53:00,
2013-09-21 19:54:00,66.8,32.5,29.47,NNW,338,8.1,18.6,28,0.00,,,0.00,WUHU216HW,2013-09-22 01:54:00,
2013-09-21 19:56:00,66.6,32.3,29.47,North,0,12.3,15.9,28,0.00,,,0.00,WUHU216HW,2013-09-22 01:56:00,
2013-09-21 19:57:00,66.6,32.3,29.47,NNW,338,15.0,16.3,28,0.00,,,0.00,WUHU216HW,2013-09-22 01:57:00,
2013-09-21 19:58:00,66.6,32.3,29.47,NNW,338,11.4,16.3,28,0.00,,,0.00,WUHU216HW,2013-09-22 01:58:00,
2013-09-21 20:00:00,66.4,32.1,29.47,NNW,338,10.5,16.3,28,0.00,,,0.00,WUHU216HW,2013-09-22 02:00:00,
2013-09-21 20:01:00,66.4,32.1,29.47,NNW,338,11.4,16.3,28,0.00,,,0.00,WUHU216HW,2013-09-22 02:01:00,
2013-09-21 20:02:00,66.4,32.1,29.47,NNW,338,12.3,16.3,28,0.00,,,0.00,WUHU216HW,2013-09-22 02:02:00,
2013-09-21 20:03:00,66.2,32.1,29.47,NNW,338,14.1,16.3,28,0.00,,,0.00,WUHU216HW,2013-09-22 02:03:00,
2013-09-21 20:05:00,66.2,33.0,29.47,NW,315,12.8,16.8,29,0.00,,,0.00,WUHU216HW,2013-09-22 02:05:00,
2013-09-21 20:06:00,66.2,32.1,29.47,NNW,338,15.0,16.8,28,0.00,,,0.00,WUHU216HW,2013-09-22 02:06:00,
2013-09-21 20:07:00,66.1,31.9,29.47,NW,315,11.4,16.8,28,0.00,,,0.00,WUHU216HW,2013-09-22 02:07:00,
2013-09-21 20:08:00,66.1,31.9,29.47,NNW,338,14.3,16.8,28,0.00,,,0.00,WUHU216HW,2013-09-22 02:08:00,
2013-09-21 20:09:00,66.1,31.9,29.47,NNW,338,15.0,16.8,28,0.00,,,0.00,WUHU216HW,2013-09-22 02:09:00,
2013-09-21 20:10:00,66.1,31.9,29.47,North,0,17.0,17.0,28,0.00,,,0.00,WUHU216HW,2013-09-22 02:10:00,
2013-09-21 20:12:00,65.9,32.7,29.48,NW,315,11.2,17.0,29,0.00,,,0.00,WUHU216HW,2013-09-22 02:12:00,
2013-09-21 20:13:00,65.9,32.7,29.48,NNW,338,12.8,17.0,29,0.00,,,0.00,WUHU216HW,2013-09-22 02:13:00,
2013-09-21 20:14:00,65.9,32.7,29.48,NW,315,12.1,17.0,29,0.00,,,0.00,WUHU216HW,2013-09-22 02:14:00,
2013-09-21 20:16:00,65.7,32.5,29.48,NNW,338,12.5,17.0,29,0.00,,,0.00,WUHU216HW,2013-09-22 02:16:00,
2013-09-21 20:17:00,65.7,32.5,29.48,NW,315,10.5,17.0,29,0.00,,,0.00,WUHU216HW,2013-09-22 02:17:00,
2013-09-21 20:19:00,65.5,32.4,29.48,NW,315,8.7,17.0,29,0.00,,,0.00,WUHU216HW,2013-09-22 02:19:00,
2013-09-21 20:20:00,65.5,32.4,29.48,NW,315,9.2,17.0,29,0.00,,,0.00,WUHU216HW,2013-09-22 02:20:00,
2013-09-21 20:21:00,65.5,32.4,29.48,NNW,338,8.5,14.3,29,0.00,,,0.00,WUHU216HW,2013-09-22 02:21:00,
2013-09-21 20:22:00,65.3,32.2,29.48,NNW,338,8.7,14.3,29,0.00,,,0.00,WUHU216HW,2013-09-22 02:22:00,
2013-09-21 20:23:00,65.3,32.2,29.48,NNW,338,8.7,14.3,29,0.00,,,0.00,WUHU216HW,2013-09-22 02:23:00,
2013-09-21 20:24:00,65.2,32.0,29.48,NW,315,10.7,14.3,29,0.00,,,0.00,WUHU216HW,2013-09-22 02:24:00,
2013-09-21 20:25:00,65.2,32.0,29.48,NNW,338,10.1,14.3,29,0.00,,,0.00,WUHU216HW,2013-09-22 02:25:00,
2013-09-21 20:26:00,65.2,32.0,29.48,NW,315,8.1,14.3,29,0.00,,,0.00,WUHU216HW,2013-09-22 02:26:00,
2013-09-21 20:27:00,65.2,32.0,29.48,NW,315,6.5,14.3,29,0.00,,,0.00,WUHU216HW,2013-09-22 02:27:00,
2013-09-21 20:28:00,65.2,32.0,29.48,NW,315,9.2,14.3,29,0.00,,,0.00,WUHU216HW,2013-09-22 02:28:00,
2013-09-21 20:29:00,65.0,31.9,29.48,NNW,338,11.2,12.8,29,0.00,,,0.00,WUHU216HW,2013-09-22 02:29:00,
2013-09-21 20:30:00,65.0,31.9,29.48,NNW,338,9.8,12.8,29,0.00,,,0.00,WUHU216HW,2013-09-22 02:30:00,
2013-09-21 20:31:00,65.0,31.9,29.48,NNW,338,9.8,12.3,29,0.00,,,0.00,WUHU216HW,2013-09-22 02:31:00,
2013-09-21 20:32:00,65.0,31.9,29.48,NNW,338,11.4,11.4,29,0.00,,,0.00,WUHU216HW,2013-09-22 02:32:00,
2013-09-21 20:33:00,65.0,31.9,29.48,NW,315,11.9,11.9,29,0.00,,,0.00,WUHU216HW,2013-09-22 02:33:00,
2013-09-21 20:34:00,64.8,32.8,29.48,NNW,338,8.7,11.9,30,0.00,,,0.00,WUHU216HW,2013-09-22 02:34:00,
2013-09-21 20:35:00,64.8,32.8,29.48,NNW,338,14.3,14.3,30,0.00,,,0.00,WUHU216HW,2013-09-22 02:35:00,
2013-09-21 20:37:00,64.8,32.8,29.48,NNW,338,11.0,14.3,30,0.00,,,0.00,WUHU216HW,2013-09-22 02:37:00,
2013-09-21 20:38:00,64.8,32.8,29.48,NW,315,13.4,14.3,30,0.00,,,0.00,WUHU216HW,2013-09-22 02:38:00,
2013-09-21 20:39:00,65.0,32.9,29.48,NNW,338,9.6,14.3,30,0.00,,,0.00,WUHU216HW,2013-09-22 02:39:00,
2013-09-21 20:40:00,65.0,31.9,29.48,NW,315,12.5,14.3,29,0.00,,,0.00,WUHU216HW,2013-09-22 02:40:00,
2013-09-21 20:42:00,65.0,32.9,29.48,NNW,338,9.8,14.3,30,0.00,,,0.00,WUHU216HW,2013-09-22 02:42:00,
2013-09-21 20:43:00,65.0,31.9,29.48,NW,315,12.1,14.3,29,0.00,,,0.00,WUHU216HW,2013-09-22 02:43:00,
2013-09-21 20:44:00,65.2,32.0,29.48,NW,315,14.3,14.3,29,0.00,,,0.00,WUHU216HW,2013-09-22 02:44:00,
2013-09-21 20:45:00,65.2,32.0,29.48,NW,315,15.2,15.2,29,0.00,,,0.00,WUHU216HW,2013-09-22 02:45:00,
2013-09-21 20:47:00,65.2,33.0,29.48,NNW,338,13.4,15.2,30,0.00,,,0.00,WUHU216HW,2013-09-22 02:47:00,
2013-09-21 20:48:00,65.2,32.0,29.48,NNW,338,13.4,15.2,29,0.00,,,0.00,WUHU216HW,2013-09-22 02:48:00,
2013-09-21 20:49:00,65.2,33.0,29.48,NW,315,13.0,15.2,30,0.00,,,0.00,WUHU216HW,2013-09-22 02:49:00,
2013-09-21 20:51:00,65.2,33.0,29.48,NNW,338,14.1,15.2,30,0.00,,,0.00,WUHU216HW,2013-09-22 02:51:00,
2013-09-21 20:52:00,65.2,33.0,29.48,NW,315,13.9,18.3,30,0.00,,,0.00,WUHU216HW,2013-09-22 02:52:00,
2013-09-21 20:53:00,65.2,33.0,29.48,NW,315,13.9,18.3,30,0.00,,,0.00,WUHU216HW,2013-09-22 02:53:00,
2013-09-21 20:54:00,65.2,33.0,29.48,NW,315,15.0,18.3,30,0.00,,,0.00,WUHU216HW,2013-09-22 02:54:00,
2013-09-21 20:56:00,65.2,33.0,29.48,NNW,338,12.3,18.3,30,0.00,,,0.00,WUHU216HW,2013-09-22 02:56:00,
2013-09-21 20:57:00,65.2,33.0,29.48,WNW,293,13.6,18.3,30,0.00,,,0.00,WUHU216HW,2013-09-22 02:57:00,
2013-09-21 20:58:00,65.2,32.0,29.48,NNW,338,14.5,18.3,29,0.00,,,0.00,WUHU216HW,2013-09-22 02:58:00,
2013-09-21 21:00:00,65.3,33.2,29.48,NNW,338,11.0,18.3,30,0.00,,,0.00,WUHU216HW,2013-09-22 03:00:00,
2013-09-21 21:01:00,65.3,32.2,29.48,NW,315,13.4,18.3,29,0.00,,,0.00,WUHU216HW,2013-09-22 03:01:00,
2013-09-21 21:02:00,65.3,32.2,29.48,NW,315,15.0,17.4,29,0.00,,,0.00,WUHU216HW,2013-09-22 03:02:00,
2013-09-21 21:03:00,65.5,32.4,29.48,NW,315,15.9,17.4,29,0.00,,,0.00,WUHU216HW,2013-09-22 03:03:00,
2013-09-21 21:05:00,65.3,32.2,29.48,NW,315,14.5,17.4,29,0.00,,,0.00,WUHU216HW,2013-09-22 03:05:00,
2013-09-21 21:07:00,65.3,32.2,29.48,NW,315,14.5,17.0,29,0.00,,,0.00,WUHU216HW,2013-09-22 03:07:00,
2013-09-21 21:08:00,65.3,33.2,29.48,NNW,338,11.4,17.0,30,0.00,,,0.00,WUHU216HW,2013-09-22 03:08:00,
2013-09-21 21:09:00,65.3,33.2,29.48,NW,315,13.4,17.0,30,0.00,,,0.00,WUHU216HW,2013-09-22 03:09:00,
2013-09-21 21:10:00,65.2,33.0,29.48,NW,315,13.9,17.0,30,0.00,,,0.00,WUHU216HW,2013-09-22 03:10:00,
2013-09-21 21:12:00,65.2,33.0,29.48,NNW,338,12.1,17.0,30,0.00,,,0.00,WUHU216HW,2013-09-22 03:12:00,
2013-09-21 21:13:00,65.0,32.9,29.48,NW,315,12.8,16.8,30,0.00,,,0.00,WUHU216HW,2013-09-22 03:13:00,
2013-09-21 21:14:00,65.0,32.9,29.48,NW,315,13.2,16.8,30,0.00,,,0.00,WUHU216HW,2013-09-22 03:14:00,
2013-09-21 21:15:00,65.0,32.9,29.48,NW,315,14.5,16.8,30,0.00,,,0.00,WUHU216HW,2013-09-22 03:15:00,
2013-09-21 21:17:00,65.0,32.9,29.48,North,0,11.4,16.1,30,0.00,,,0.00,WUHU216HW,2013-09-22 03:17:00,
2013-09-21 21:19:00,64.8,32.8,29.48,NW,315,17.9,17.9,30,0.00,,,0.00,WUHU216HW,2013-09-22 03:19:00,
2013-09-21 21:20:00,64.8,32.8,29.48,NW,315,12.5,17.9,30,0.00,,,0.00,WUHU216HW,2013-09-22 03:20:00,
2013-09-21 21:21:00,64.8,32.8,29.48,NNW,338,10.7,17.9,30,0.00,,,0.00,WUHU216HW,2013-09-22 03:21:00,
2013-09-21 21:23:00,64.8,32.8,29.48,NW,315,12.1,17.9,30,0.00,,,0.00,WUHU216HW,2013-09-22 03:23:00,
2013-09-21 21:24:00,64.8,32.8,29.48,NNW,338,9.6,17.9,30,0.00,,,0.00,WUHU216HW,2013-09-22 03:24:00,
2013-09-21 21:25:00,64.6,32.6,29.49,NNW,338,10.5,17.9,30,0.00,,,0.00,WUHU216HW,2013-09-22 03:25:00,
2013-09-21 21:26:00,64.6,32.6,29.48,NNW,338,8.9,17.9,30,0.00,,,0.00,WUHU216HW,2013-09-22 03:26:00,
2013-09-21 21:28:00,64.4,32.4,29.49,NW,315,13.4,17.9,30,0.00,,,0.00,WUHU216HW,2013-09-22 03:28:00,
2013-09-21 21:29:00,64.4,32.4,29.49,NNW,338,10.1,17.9,30,0.00,,,0.00,WUHU216HW,2013-09-22 03:29:00,
2013-09-21 21:30:00,64.4,32.4,29.48,NNW,338,13.2,14.1,30,0.00,,,0.00,WUHU216HW,2013-09-22 03:30:00,
2013-09-21 21:31:00,64.4,32.4,29.49,NNW,338,14.1,14.1,30,0.00,,,0.00,WUHU216HW,2013-09-22 03:31:00,
2013-09-21 21:33:00,64.3,32.2,29.49,NW,315,14.3,15.9,30,0.00,,,0.00,WUHU216HW,2013-09-22 03:33:00,
2013-09-21 21:34:00,64.4,32.4,29.49,NW,315,9.8,15.9,30,0.00,,,0.00,WUHU216HW,2013-09-22 03:34:00,
2013-09-21 21:35:00,64.4,32.4,29.48,NNW,338,8.7,15.9,30,0.00,,,0.00,WUHU216HW,2013-09-22 03:35:00,
2013-09-21 21:36:00,64.3,32.2,29.48,NNW,338,12.8,15.9,30,0.00,,,0.00,WUHU216HW,2013-09-22 03:36:00,
2013-09-21 21:38:00,64.1,32.8,29.48,NNW,338,14.8,15.9,31,0.00,,,0.00,WUHU216HW,2013-09-22 03:38:00,
2013-09-21 21:39:00,64.1,32.0,29.48,NNW,338,13.9,15.9,30,0.00,,,0.00,WUHU216HW,2013-09-22 03:39:00,
2013-09-21 21:40:00,64.1,32.0,29.48,NNW,338,13.9,15.9,30,0.00,,,0.00,WUHU216HW,2013-09-22 03:40:00,
2013-09-21 21:41:00,64.1,32.8,29.48,NW,315,12.1,15.9,31,0.00,,,0.00,WUHU216HW,2013-09-22 03:41:00,
2013-09-21 21:44:00,63.9,32.7,29.48,NW,315,12.1,14.8,31,0.00,,,0.00,WUHU216HW,2013-09-22 03:44:00,
2013-09-21 21:45:00,63.7,32.5,29.48,NNW,338,14.3,14.8,31,0.00,,,0.00,WUHU216HW,2013-09-22 03:45:00,
2013-09-21 21:46:00,63.7,32.5,29.49,NNW,338,13.2,14.8,31,0.00,,,0.00,WUHU216HW,2013-09-22 03:46:00,
2013-09-21 21:49:00,63.5,32.3,29.48,NNW,338,14.8,14.8,31,0.00,,,0.00,WUHU216HW,2013-09-22 03:49:00,
2013-09-21 21:50:00,63.4,32.1,29.48,NNW,338,9.6,14.8,31,0.00,,,0.00,WUHU216HW,2013-09-22 03:50:00,
2013-09-21 21:51:00,63.4,32.1,29.48,NW,315,14.1,14.8,31,0.00,,,0.00,WUHU216HW,2013-09-22 03:51:00,
2013-09-21 21:54:00,63.5,32.3,29.49,NW,315,13.2,14.8,31,0.00,,,0.00,WUHU216HW,2013-09-22 03:54:00,
2013-09-21 21:55:00,63.7,31.8,29.48,NNW,338,11.9,14.8,30,0.00,,,0.00,WUHU216HW,2013-09-22 03:55:00,
2013-09-21 21:56:00,63.7,31.8,29.49,NW,315,13.0,14.8,30,0.00,,,0.00,WUHU216HW,2013-09-22 03:56:00,
2013-09-21 21:59:00,64.3,32.2,29.49,NNW,338,11.4,17.0,30,0.00,,,0.00,WUHU216HW,2013-09-22 03:59:00,
2013-09-21 22:00:00,64.4,32.4,29.49,NNW,338,12.8,17.0,30,0.00,,,0.00,WUHU216HW,2013-09-22 04:00:00,
2013-09-21 22:01:00,64.4,32.4,29.49,NNW,338,12.8,17.0,30,0.00,,,0.00,WUHU216HW,2013-09-22 04:01:00,
2013-09-21 22:02:00,64.6,32.6,29.49,NNW,338,13.9,17.0,30,0.00,,,0.00,WUHU216HW,2013-09-22 04:02:00,
2013-09-21 22:06:00,64.8,32.8,29.49,NW,315,14.1,17.0,30,0.00,,,0.00,WUHU216HW,2013-09-22 04:06:00,
2013-09-21 22:07:00,64.8,32.8,29.49,NW,315,13.4,17.0,30,0.00,,,0.00,WUHU216HW,2013-09-22 04:07:00,
2013-09-21 22:11:00,64.8,32.8,29.49,NW,315,12.3,16.3,30,0.00,,,0.00,WUHU216HW,2013-09-22 04:11:00,
2013-09-21 22:12:00,64.8,32.8,29.49,NW,315,15.0,17.9,30,0.00,,,0.00,WUHU216HW,2013-09-22 04:12:00,
2013-09-21 22:16:00,64.8,32.8,29.49,NNW,338,11.2,17.9,30,0.00,,,0.00,WUHU216HW,2013-09-22 04:16:00,
2013-09-21 22:17:00,64.8,32.8,29.49,NW,315,14.3,17.9,30,0.00,,,0.00,WUHU216HW,2013-09-22 04:17:00,
2013-09-21 22:21:00,64.6,32.6,29.49,NNW,338,12.1,17.9,30,0.00,,,0.00,WUHU216HW,2013-09-22 04:21:00,
2013-09-21 22:22:00,64.6,32.6,29.49,NNW,338,14.5,15.0,30,0.00,,,0.00,WUHU216HW,2013-09-22 04:22:00,
2013-09-21 22:23:00,64.6,32.6,29.49,NNW,338,10.5,14.5,30,0.00,,,0.00,WUHU216HW,2013-09-22 04:23:00,
2013-09-21 22:26:00,64.4,32.4,29.49,NW,315,13.0,14.5,30,0.00,,,0.00,WUHU216HW,2013-09-22 04:26:00,
2013-09-21 22:27:00,64.4,32.4,29.49,NW,315,10.1,14.5,30,0.00,,,0.00,WUHU216HW,2013-09-22 04:27:00,
2013-09-21 22:28:00,64.4,32.4,29.49,NNW,338,11.9,14.5,30,0.00,,,0.00,WUHU216HW,2013-09-22 04:28:00,
2013-09-21 22:31:00,64.1,32.0,29.49,NW,315,7.6,14.5,30,0.00,,,0.00,WUHU216HW,2013-09-22 04:31:00,
2013-09-21 22:32:00,64.1,32.0,29.49,NW,315,7.6,13.0,30,0.00,,,0.00,WUHU216HW,2013-09-22 04:32:00,
2013-09-21 22:33:00,64.1,32.0,29.49,NW,315,10.3,13.0,30,0.00,,,0.00,WUHU216HW,2013-09-22 04:33:00,
2013-09-21 22:37:00,63.7,32.5,29.49,NNW,338,8.3,12.5,31,0.00,,,0.00,WUHU216HW,2013-09-22 04:37:00,
2013-09-21 22:39:00,63.5,32.3,29.49,NNW,338,10.7,12.5,31,0.00,,,0.00,WUHU216HW,2013-09-22 04:39:00,
2013-09-21 22:42:00,62.6,32.9,29.49,North,0,6.7,11.6,33,0.00,,,0.00,WUHU216HW,2013-09-22 04:42:00,
2013-09-21 22:44:00,62.3,32.6,29.49,NNW,338,9.6,14.5,33,0.00,,,0.00,WUHU216HW,2013-09-22 04:44:00,
2013-09-21 22:47:00,62.3,31.9,29.49,NNW,338,13.9,16.1,32,0.00,,,0.00,WUHU216HW,2013-09-22 04:47:00,
2013-09-21 22:48:00,62.5,32.0,29.49,NNW,338,14.1,16.1,32,0.00,,,0.00,WUHU216HW,2013-09-22 04:48:00,
2013-09-21 22:49:00,62.6,32.2,29.49,NNW,338,14.3,16.1,32,0.00,,,0.00,WUHU216HW,2013-09-22 04:49:00,
2013-09-21 22:52:00,63.0,31.9,29.49,NNW,338,12.8,16.1,31,0.00,,,0.00,WUHU216HW,2013-09-22 04:52:00,
2013-09-21 22:53:00,63.0,31.9,29.49,North,0,12.5,16.1,31,0.00,,,0.00,WUHU216HW,2013-09-22 04:53:00,
2013-09-21 22:54:00,63.0,31.9,29.49,NNW,338,17.7,17.7,31,0.00,,,0.00,WUHU216HW,2013-09-22 04:54:00,
2013-09-21 22:57:00,63.2,32.0,29.49,NNW,338,15.7,17.7,31,0.00,,,0.00,WUHU216HW,2013-09-22 04:57:00,
2013-09-21 22:58:00,63.4,32.1,29.49,NNW,338,14.5,17.7,31,0.00,,,0.00,WUHU216HW,2013-09-22 04:58:00,
2013-09-21 22:59:00,63.4,32.1,29.49,NNW,338,16.8,17.7,31,0.00,,,0.00,WUHU216HW,2013-09-22 04:59:00,
2013-09-21 23:02:00,63.4,32.1,29.49,NNW,338,12.1,21.3,31,0.00,,,0.00,WUHU216HW,2013-09-22 05:02:00,
2013-09-21 23:03:00,63.4,32.1,29.49,NNW,338,18.6,21.3,31,0.00,,,0.00,WUHU216HW,2013-09-22 05:03:00,
2013-09-21 23:04:00,63.4,32.1,29.49,NW,315,18.3,21.3,31,0.00,,,0.00,WUHU216HW,2013-09-22 05:04:00,
2013-09-21 23:07:00,63.4,32.1,29.49,NNW,338,13.2,21.3,31,0.00,,,0.00,WUHU216HW,2013-09-22 05:07:00,
2013-09-21 23:08:00,63.2,32.0,29.49,NNW,338,13.2,21.3,31,0.00,,,0.00,WUHU216HW,2013-09-22 05:08:00,
2013-09-21 23:09:00,63.2,32.0,29.49,NW,315,17.0,21.3,31,0.00,,,0.00,WUHU216HW,2013-09-22 05:09:00,
2013-09-21 23:10:00,63.2,32.0,29.49,North,0,16.3,21.3,31,0.00,,,0.00,WUHU216HW,2013-09-22 05:10:00,
2013-09-21 23:12:00,63.4,31.4,29.49,NNW,338,15.0,19.5,30,0.00,,,0.00,WUHU216HW,2013-09-22 05:12:00,
2013-09-21 23:13:00,63.4,31.4,29.49,NNW,338,14.5,19.5,30,0.00,,,0.00,WUHU216HW,2013-09-22 05:13:00,
2013-09-21 23:14:00,63.4,31.4,29.49,NW,315,18.6,19.5,30,0.00,,,0.00,WUHU216HW,2013-09-22 05:14:00,
2013-09-21 23:15:00,63.4,31.4,29.49,NNW,338,17.9,19.5,30,0.00,,,0.00,WUHU216HW,2013-09-22 05:15:00,
2013-09-21 23:17:00,63.2,32.0,29.49,NNW,338,15.9,19.5,31,0.00,,,0.00,WUHU216HW,2013-09-22 05:17:00,
2013-09-21 23:18:00,63.2,32.0,29.49,NNW,338,12.5,19.5,31,0.00,,,0.00,WUHU216HW,2013-09-22 05:18:00,
2013-09-21 23:19:00,63.0,31.9,29.49,NNW,338,14.3,19.5,31,0.00,,,0.00,WUHU216HW,2013-09-22 05:19:00,
2013-09-21 23:20:00,63.0,31.9,29.49,North,0,15.4,19.5,31,0.00,,,0.00,WUHU216HW,2013-09-22 05:20:00,
2013-09-21 23:22:00,63.0,31.9,29.49,NNW,338,14.3,19.2,31,0.00,,,0.00,WUHU216HW,2013-09-22 05:22:00,
2013-09-21 23:23:00,63.0,31.9,29.49,NNW,338,13.6,19.2,31,0.00,,,0.00,WUHU216HW,2013-09-22 05:23:00,
2013-09-21 23:25:00,63.0,31.9,29.49,NW,315,12.1,19.5,31,0.00,,,0.00,WUHU216HW,2013-09-22 05:25:00,
2013-09-21 23:27:00,62.8,31.7,29.50,NW,315,12.8,19.5,31,0.00,,,0.00,WUHU216HW,2013-09-22 05:27:00,
2013-09-21 23:28:00,62.8,31.7,29.49,NW,315,12.8,19.5,31,0.00,,,0.00,WUHU216HW,2013-09-22 05:28:00,
2013-09-21 23:30:00,62.6,31.5,29.49,NNW,338,15.4,19.5,31,0.00,,,0.00,WUHU216HW,2013-09-22 05:30:00,
2013-09-21 23:31:00,62.6,31.5,29.49,NNW,338,15.7,19.5,31,0.00,,,0.00,WUHU216HW,2013-09-22 05:31:00,
2013-09-21 23:32:00,62.6,31.5,29.49,NNW,338,14.1,19.5,31,0.00,,,0.00,WUHU216HW,2013-09-22 05:32:00,
2013-09-21 23:33:00,62.6,32.2,29.49,NNW,338,12.3,19.5,32,0.00,,,0.00,WUHU216HW,2013-09-22 05:33:00,
2013-09-21 23:35:00,62.5,32.0,29.49,NNW,338,16.3,17.4,32,0.00,,,0.00,WUHU216HW,2013-09-22 05:35:00,
2013-09-21 23:36:00,62.5,32.0,29.49,NNW,338,13.2,17.4,32,0.00,,,0.00,WUHU216HW,2013-09-22 05:36:00,
2013-09-21 23:38:00,62.5,32.0,29.50,NNW,338,12.1,17.4,32,0.00,,,0.00,WUHU216HW,2013-09-22 05:38:00,
2013-09-21 23:39:00,62.5,32.0,29.50,NW,315,12.8,17.9,32,0.00,,,0.00,WUHU216HW,2013-09-22 05:39:00,
2013-09-21 23:40:00,62.3,31.9,29.50,NNW,338,14.5,17.9,32,0.00,,,0.00,WUHU216HW,2013-09-22 05:40:00,
2013-09-21 23:41:00,62.3,31.9,29.50,NNW,338,14.8,17.9,32,0.00,,,0.00,WUHU216HW,2013-09-22 05:41:00,
2013-09-21 23:43:00,62.3,31.9,29.50,NNW,338,11.4,17.9,32,0.00,,,0.00,WUHU216HW,2013-09-22 05:43:00,
2013-09-21 23:44:00,62.1,32.5,29.50,NNW,338,10.7,17.9,33,0.00,,,0.00,WUHU216HW,2013-09-22 05:44:00,
2013-09-21 23:45:00,61.9,32.3,29.50,NNW,338,10.5,17.9,33,0.00,,,0.00,WUHU216HW,2013-09-22 05:45:00,
2013-09-21 23:46:00,61.7,32.1,29.50,North,0,11.9,17.9,33,0.00,,,0.00,WUHU216HW,2013-09-22 05:46:00,
2013-09-21 23:48:00,61.4,31.8,29.50,NNW,338,11.9,17.9,33,0.00,,,0.00,WUHU216HW,2013-09-22 05:48:00,
2013-09-21 23:49:00,61.2,32.4,29.50,NNW,338,9.8,16.8,34,0.00,,,0.00,WUHU216HW,2013-09-22 05:49:00,
2013-09-21 23:50:00,61.2,32.4,29.50,NNW,338,14.3,16.3,34,0.00,,,0.00,WUHU216HW,2013-09-22 05:50:00,
2013-09-21 23:51:00,61.0,32.2,29.50,NNW,338,11.0,15.9,34,0.00,,,0.00,WUHU216HW,2013-09-22 05:51:00,
2013-09-21 23:53:00,60.8,32.8,29.50,NW,315,15.4,15.9,35,0.00,,,0.00,WUHU216HW,2013-09-22 05:53:00,
2013-09-21 23:54:00,60.7,32.6,29.50,NNW,338,14.5,15.9,35,0.00,,,0.00,WUHU216HW,2013-09-22 05:54:00,
2013-09-21 23:55:00,60.7,32.6,29.50,NNW,338,13.4,15.9,35,0.00,,,0.00,WUHU216HW,2013-09-22 05:55:00,
2013-09-21 23:56:00,60.5,32.5,29.50,NNW,338,11.2,15.9,35,0.00,,,0.00,WUHU216HW,2013-09-22 05:56:00,
2013-09-21 23:57:00,60.5,33.2,29.50,NNW,338,12.8,15.4,36,0.00,,,0.00,WUHU216HW,2013-09-22 05:57:00,
2013-09-21 23:58:00,60.5,33.2,29.49,NNW,338,11.4,15.4,36,0.00,,,0.00,WUHU216HW,2013-09-22 05:58:00,